<?xml version="1.0" encoding="UTF-8" standalone="no" ?>
<gpx xmlns="http://www.topografix.com/GPX/1/1" xmlns:xsi="http://www.w3.org/2001/XMLSchema-instance" xsi:schemaLocation="http://www.topografix.com/GPX/1/1 http://www.topografix.com/GPX/1/1/gpx.xsd" version="1.1" creator="VisuGPX - https://www.visugpx.com">
  <metadata>
    <name>circuit de plane</name>
    <desc><![CDATA[pédestre et course à pied]]></desc>
  </metadata>
  <trk>
    <name><![CDATA[PLANE]]></name>
    <trkseg>
      <trkpt lat="44.22722" lon="6.00147">
        <ele>823.99</ele>
        <time>2013-06-07T13:19:22Z</time>
      </trkpt>
      <trkpt lat="44.22722" lon="6.00147">
        <ele>824.47</ele>
        <time>2013-06-07T13:19:23Z</time>
      </trkpt>
      <trkpt lat="44.22722" lon="6.00146">
        <ele>828.79</ele>
        <time>2013-06-07T13:19:31Z</time>
      </trkpt>
      <trkpt lat="44.22722" lon="6.00146">
        <ele>832.64</ele>
        <time>2013-06-07T13:19:33Z</time>
      </trkpt>
      <trkpt lat="44.22722" lon="6.00146">
        <ele>836.48</ele>
        <time>2013-06-07T13:19:35Z</time>
      </trkpt>
      <trkpt lat="44.22722" lon="6.00146">
        <ele>840.33</ele>
        <time>2013-06-07T13:19:37Z</time>
      </trkpt>
      <trkpt lat="44.22722" lon="6.00146">
        <ele>843.69</ele>
        <time>2013-06-07T13:19:39Z</time>
      </trkpt>
      <trkpt lat="44.22722" lon="6.00146">
        <ele>847.06</ele>
        <time>2013-06-07T13:19:41Z</time>
      </trkpt>
      <trkpt lat="44.22722" lon="6.00146">
        <ele>850.42</ele>
        <time>2013-06-07T13:19:43Z</time>
      </trkpt>
      <trkpt lat="44.22723" lon="6.00145">
        <ele>854.27</ele>
        <time>2013-06-07T13:19:46Z</time>
      </trkpt>
      <trkpt lat="44.22724" lon="6.00146">
        <ele>858.59</ele>
        <time>2013-06-07T13:19:49Z</time>
      </trkpt>
      <trkpt lat="44.22724" lon="6.00145">
        <ele>862.44</ele>
        <time>2013-06-07T13:19:53Z</time>
      </trkpt>
      <trkpt lat="44.22722" lon="6.00145">
        <ele>865.8</ele>
        <time>2013-06-07T13:19:57Z</time>
      </trkpt>
      <trkpt lat="44.22722" lon="6.00145">
        <ele>869.17</ele>
        <time>2013-06-07T13:19:58Z</time>
      </trkpt>
      <trkpt lat="44.22722" lon="6.00144">
        <ele>868.69</ele>
        <time>2013-06-07T13:19:59Z</time>
      </trkpt>
      <trkpt lat="44.22722" lon="6.00143">
        <ele>871.57</ele>
        <time>2013-06-07T13:20:01Z</time>
      </trkpt>
      <trkpt lat="44.22722" lon="6.00143">
        <ele>871.57</ele>
        <time>2013-06-07T13:20:02Z</time>
      </trkpt>
      <trkpt lat="44.22723" lon="6.00143">
        <ele>874.46</ele>
        <time>2013-06-07T13:20:07Z</time>
      </trkpt>
      <trkpt lat="44.22723" lon="6.00144">
        <ele>877.82</ele>
        <time>2013-06-07T13:20:13Z</time>
      </trkpt>
      <trkpt lat="44.22723" lon="6.00144">
        <ele>880.71</ele>
        <time>2013-06-07T13:20:21Z</time>
      </trkpt>
      <trkpt lat="44.22722" lon="6.00146">
        <ele>884.07</ele>
        <time>2013-06-07T13:20:32Z</time>
      </trkpt>
      <trkpt lat="44.22717" lon="6.00148">
        <ele>886.47</ele>
        <time>2013-06-07T13:20:47Z</time>
      </trkpt>
      <trkpt lat="44.22717" lon="6.00143">
        <ele>881.67</ele>
        <time>2013-06-07T13:20:56Z</time>
      </trkpt>
      <trkpt lat="44.22717" lon="6.00143">
        <ele>885.03</ele>
        <time>2013-06-07T13:20:57Z</time>
      </trkpt>
      <trkpt lat="44.22717" lon="6.00143">
        <ele>888.88</ele>
        <time>2013-06-07T13:20:58Z</time>
      </trkpt>
      <trkpt lat="44.22717" lon="6.00143">
        <ele>888.4</ele>
        <time>2013-06-07T13:20:59Z</time>
      </trkpt>
      <trkpt lat="44.22718" lon="6.0014">
        <ele>892.24</ele>
        <time>2013-06-07T13:21:06Z</time>
      </trkpt>
      <trkpt lat="44.22717" lon="6.00141">
        <ele>888.88</ele>
        <time>2013-06-07T13:21:13Z</time>
      </trkpt>
      <trkpt lat="44.22718" lon="6.00144">
        <ele>888.88</ele>
        <time>2013-06-07T13:21:26Z</time>
      </trkpt>
      <trkpt lat="44.2272" lon="6.00143">
        <ele>888.4</ele>
        <time>2013-06-07T13:21:52Z</time>
      </trkpt>
      <trkpt lat="44.22719" lon="6.00142">
        <ele>888.88</ele>
        <time>2013-06-07T13:22:21Z</time>
      </trkpt>
      <trkpt lat="44.22718" lon="6.00143">
        <ele>889.36</ele>
        <time>2013-06-07T13:22:33Z</time>
      </trkpt>
      <trkpt lat="44.2272" lon="6.00143">
        <ele>888.88</ele>
        <time>2013-06-07T13:22:55Z</time>
      </trkpt>
      <trkpt lat="44.22718" lon="6.00145">
        <ele>889.36</ele>
        <time>2013-06-07T13:23:18Z</time>
      </trkpt>
      <trkpt lat="44.22715" lon="6.00142">
        <ele>889.36</ele>
        <time>2013-06-07T13:23:43Z</time>
      </trkpt>
      <trkpt lat="44.22716" lon="6.00144">
        <ele>888.88</ele>
        <time>2013-06-07T13:23:55Z</time>
      </trkpt>
      <trkpt lat="44.22716" lon="6.00142">
        <ele>887.43</ele>
        <time>2013-06-07T13:24:19Z</time>
      </trkpt>
      <trkpt lat="44.22716" lon="6.00141">
        <ele>890.8</ele>
        <time>2013-06-07T13:24:20Z</time>
      </trkpt>
      <trkpt lat="44.22719" lon="6.00138">
        <ele>889.84</ele>
        <time>2013-06-07T13:24:29Z</time>
      </trkpt>
      <trkpt lat="44.22721" lon="6.00133">
        <ele>890.8</ele>
        <time>2013-06-07T13:24:39Z</time>
      </trkpt>
      <trkpt lat="44.22725" lon="6.00136">
        <ele>890.8</ele>
        <time>2013-06-07T13:24:50Z</time>
      </trkpt>
      <trkpt lat="44.2273" lon="6.00135">
        <ele>891.76</ele>
        <time>2013-06-07T13:24:58Z</time>
      </trkpt>
      <trkpt lat="44.22736" lon="6.00135">
        <ele>893.2</ele>
        <time>2013-06-07T13:25:07Z</time>
      </trkpt>
      <trkpt lat="44.22737" lon="6.00135">
        <ele>890.8</ele>
        <time>2013-06-07T13:25:12Z</time>
      </trkpt>
      <trkpt lat="44.22738" lon="6.00135">
        <ele>893.68</ele>
        <time>2013-06-07T13:25:13Z</time>
      </trkpt>
      <trkpt lat="44.22739" lon="6.00135">
        <ele>894.16</ele>
        <time>2013-06-07T13:25:20Z</time>
      </trkpt>
      <trkpt lat="44.2274" lon="6.00135">
        <ele>892.72</ele>
        <time>2013-06-07T13:25:21Z</time>
      </trkpt>
      <trkpt lat="44.22741" lon="6.00135">
        <ele>894.64</ele>
        <time>2013-06-07T13:25:22Z</time>
      </trkpt>
      <trkpt lat="44.22742" lon="6.00132">
        <ele>894.64</ele>
        <time>2013-06-07T13:25:30Z</time>
      </trkpt>
      <trkpt lat="44.22742" lon="6.00132">
        <ele>892.72</ele>
        <time>2013-06-07T13:25:32Z</time>
      </trkpt>
      <trkpt lat="44.22742" lon="6.00132">
        <ele>895.61</ele>
        <time>2013-06-07T13:25:33Z</time>
      </trkpt>
      <trkpt lat="44.22738" lon="6.00127">
        <ele>895.61</ele>
        <time>2013-06-07T13:25:46Z</time>
      </trkpt>
      <trkpt lat="44.22743" lon="6.00125">
        <ele>896.09</ele>
        <time>2013-06-07T13:25:57Z</time>
      </trkpt>
      <trkpt lat="44.22744" lon="6.00125">
        <ele>896.57</ele>
        <time>2013-06-07T13:26:00Z</time>
      </trkpt>
      <trkpt lat="44.22744" lon="6.00124">
        <ele>898.01</ele>
        <time>2013-06-07T13:26:02Z</time>
      </trkpt>
      <trkpt lat="44.22745" lon="6.00124">
        <ele>896.57</ele>
        <time>2013-06-07T13:26:03Z</time>
      </trkpt>
      <trkpt lat="44.22745" lon="6.00124">
        <ele>898.01</ele>
        <time>2013-06-07T13:26:04Z</time>
      </trkpt>
      <trkpt lat="44.22746" lon="6.00124">
        <ele>896.09</ele>
        <time>2013-06-07T13:26:06Z</time>
      </trkpt>
      <trkpt lat="44.22748" lon="6.00124">
        <ele>897.53</ele>
        <time>2013-06-07T13:26:09Z</time>
      </trkpt>
      <trkpt lat="44.22749" lon="6.00123">
        <ele>896.09</ele>
        <time>2013-06-07T13:26:11Z</time>
      </trkpt>
      <trkpt lat="44.22749" lon="6.00122">
        <ele>899.45</ele>
        <time>2013-06-07T13:26:12Z</time>
      </trkpt>
      <trkpt lat="44.22752" lon="6.00117">
        <ele>900.41</ele>
        <time>2013-06-07T13:26:22Z</time>
      </trkpt>
      <trkpt lat="44.22758" lon="6.0012">
        <ele>902.82</ele>
        <time>2013-06-07T13:26:29Z</time>
      </trkpt>
      <trkpt lat="44.22769" lon="6.00127">
        <ele>902.82</ele>
        <time>2013-06-07T13:26:42Z</time>
      </trkpt>
      <trkpt lat="44.22774" lon="6.00136">
        <ele>902.33</ele>
        <time>2013-06-07T13:26:52Z</time>
      </trkpt>
      <trkpt lat="44.22775" lon="6.00137">
        <ele>902.33</ele>
        <time>2013-06-07T13:26:53Z</time>
      </trkpt>
      <trkpt lat="44.22776" lon="6.00138">
        <ele>903.78</ele>
        <time>2013-06-07T13:26:54Z</time>
      </trkpt>
      <trkpt lat="44.22777" lon="6.00149">
        <ele>902.82</ele>
        <time>2013-06-07T13:27:06Z</time>
      </trkpt>
      <trkpt lat="44.22778" lon="6.00158">
        <ele>903.78</ele>
        <time>2013-06-07T13:27:14Z</time>
      </trkpt>
      <trkpt lat="44.22778" lon="6.00158">
        <ele>901.85</ele>
        <time>2013-06-07T13:27:15Z</time>
      </trkpt>
      <trkpt lat="44.22778" lon="6.00159">
        <ele>904.26</ele>
        <time>2013-06-07T13:27:16Z</time>
      </trkpt>
      <trkpt lat="44.22778" lon="6.00159">
        <ele>902.82</ele>
        <time>2013-06-07T13:27:17Z</time>
      </trkpt>
      <trkpt lat="44.22779" lon="6.00164">
        <ele>903.3</ele>
        <time>2013-06-07T13:27:30Z</time>
      </trkpt>
      <trkpt lat="44.2278" lon="6.00165">
        <ele>901.37</ele>
        <time>2013-06-07T13:27:35Z</time>
      </trkpt>
      <trkpt lat="44.2278" lon="6.00165">
        <ele>904.74</ele>
        <time>2013-06-07T13:27:36Z</time>
      </trkpt>
      <trkpt lat="44.22781" lon="6.00165">
        <ele>902.82</ele>
        <time>2013-06-07T13:27:44Z</time>
      </trkpt>
      <trkpt lat="44.22781" lon="6.00166">
        <ele>904.26</ele>
        <time>2013-06-07T13:27:45Z</time>
      </trkpt>
      <trkpt lat="44.22778" lon="6.0017">
        <ele>903.78</ele>
        <time>2013-06-07T13:28:04Z</time>
      </trkpt>
      <trkpt lat="44.22778" lon="6.0017">
        <ele>904.26</ele>
        <time>2013-06-07T13:28:06Z</time>
      </trkpt>
      <trkpt lat="44.22778" lon="6.0017">
        <ele>902.82</ele>
        <time>2013-06-07T13:28:07Z</time>
      </trkpt>
      <trkpt lat="44.22778" lon="6.00167">
        <ele>904.26</ele>
        <time>2013-06-07T13:28:08Z</time>
      </trkpt>
      <trkpt lat="44.22776" lon="6.00168">
        <ele>904.26</ele>
        <time>2013-06-07T13:28:24Z</time>
      </trkpt>
      <trkpt lat="44.22771" lon="6.00165">
        <ele>905.22</ele>
        <time>2013-06-07T13:28:38Z</time>
      </trkpt>
      <trkpt lat="44.22768" lon="6.00166">
        <ele>903.78</ele>
        <time>2013-06-07T13:28:48Z</time>
      </trkpt>
      <trkpt lat="44.22769" lon="6.00167">
        <ele>907.14</ele>
        <time>2013-06-07T13:28:50Z</time>
      </trkpt>
      <trkpt lat="44.22769" lon="6.00167">
        <ele>905.22</ele>
        <time>2013-06-07T13:28:51Z</time>
      </trkpt>
      <trkpt lat="44.22769" lon="6.0017">
        <ele>904.74</ele>
        <time>2013-06-07T13:29:04Z</time>
      </trkpt>
      <trkpt lat="44.22768" lon="6.00169">
        <ele>905.22</ele>
        <time>2013-06-07T13:29:21Z</time>
      </trkpt>
      <trkpt lat="44.22759" lon="6.00165">
        <ele>905.22</ele>
        <time>2013-06-07T13:29:44Z</time>
      </trkpt>
      <trkpt lat="44.22756" lon="6.0017">
        <ele>905.22</ele>
        <time>2013-06-07T13:30:10Z</time>
      </trkpt>
      <trkpt lat="44.22755" lon="6.00171">
        <ele>905.7</ele>
        <time>2013-06-07T13:30:31Z</time>
      </trkpt>
      <trkpt lat="44.22756" lon="6.00166">
        <ele>905.7</ele>
        <time>2013-06-07T13:30:58Z</time>
      </trkpt>
      <trkpt lat="44.22755" lon="6.00167">
        <ele>906.18</ele>
        <time>2013-06-07T13:31:21Z</time>
      </trkpt>
      <trkpt lat="44.22755" lon="6.00164">
        <ele>906.18</ele>
        <time>2013-06-07T13:31:57Z</time>
      </trkpt>
      <trkpt lat="44.22754" lon="6.00162">
        <ele>906.18</ele>
        <time>2013-06-07T13:32:29Z</time>
      </trkpt>
      <trkpt lat="44.22755" lon="6.00164">
        <ele>906.18</ele>
        <time>2013-06-07T13:32:53Z</time>
      </trkpt>
      <trkpt lat="44.22757" lon="6.00165">
        <ele>906.18</ele>
        <time>2013-06-07T13:33:21Z</time>
      </trkpt>
      <trkpt lat="44.22757" lon="6.00167">
        <ele>906.18</ele>
        <time>2013-06-07T13:33:54Z</time>
      </trkpt>
      <trkpt lat="44.22748" lon="6.00161">
        <ele>906.66</ele>
        <time>2013-06-07T13:34:23Z</time>
      </trkpt>
      <trkpt lat="44.22741" lon="6.0016">
        <ele>906.66</ele>
        <time>2013-06-07T13:34:58Z</time>
      </trkpt>
      <trkpt lat="44.22742" lon="6.00158">
        <ele>907.14</ele>
        <time>2013-06-07T13:35:25Z</time>
      </trkpt>
      <trkpt lat="44.22743" lon="6.00162">
        <ele>907.62</ele>
        <time>2013-06-07T13:35:49Z</time>
      </trkpt>
      <trkpt lat="44.2274" lon="6.0016">
        <ele>906.66</ele>
        <time>2013-06-07T13:36:11Z</time>
      </trkpt>
      <trkpt lat="44.22741" lon="6.00162">
        <ele>907.62</ele>
        <time>2013-06-07T13:36:33Z</time>
      </trkpt>
      <trkpt lat="44.22741" lon="6.00164">
        <ele>907.62</ele>
        <time>2013-06-07T13:36:55Z</time>
      </trkpt>
      <trkpt lat="44.22742" lon="6.00164">
        <ele>907.62</ele>
        <time>2013-06-07T13:37:24Z</time>
      </trkpt>
      <trkpt lat="44.22741" lon="6.00163">
        <ele>909.06</ele>
        <time>2013-06-07T13:37:37Z</time>
      </trkpt>
      <trkpt lat="44.22741" lon="6.00164">
        <ele>907.62</ele>
        <time>2013-06-07T13:37:38Z</time>
      </trkpt>
      <trkpt lat="44.22741" lon="6.00165">
        <ele>907.14</ele>
        <time>2013-06-07T13:37:49Z</time>
      </trkpt>
      <trkpt lat="44.22737" lon="6.00169">
        <ele>904.26</ele>
        <time>2013-06-07T13:38:02Z</time>
      </trkpt>
      <trkpt lat="44.22737" lon="6.00169">
        <ele>907.62</ele>
        <time>2013-06-07T13:38:03Z</time>
      </trkpt>
      <trkpt lat="44.22738" lon="6.00171">
        <ele>905.7</ele>
        <time>2013-06-07T13:38:04Z</time>
      </trkpt>
      <trkpt lat="44.22739" lon="6.00173">
        <ele>904.26</ele>
        <time>2013-06-07T13:38:07Z</time>
      </trkpt>
      <trkpt lat="44.22739" lon="6.00174">
        <ele>906.18</ele>
        <time>2013-06-07T13:38:08Z</time>
      </trkpt>
      <trkpt lat="44.22741" lon="6.00176">
        <ele>904.74</ele>
        <time>2013-06-07T13:38:10Z</time>
      </trkpt>
      <trkpt lat="44.22741" lon="6.00176">
        <ele>906.18</ele>
        <time>2013-06-07T13:38:11Z</time>
      </trkpt>
      <trkpt lat="44.22743" lon="6.00178">
        <ele>907.14</ele>
        <time>2013-06-07T13:38:13Z</time>
      </trkpt>
      <trkpt lat="44.22744" lon="6.0018">
        <ele>905.7</ele>
        <time>2013-06-07T13:38:15Z</time>
      </trkpt>
      <trkpt lat="44.22746" lon="6.00182">
        <ele>904.74</ele>
        <time>2013-06-07T13:38:18Z</time>
      </trkpt>
      <trkpt lat="44.22747" lon="6.00183">
        <ele>907.62</ele>
        <time>2013-06-07T13:38:19Z</time>
      </trkpt>
      <trkpt lat="44.22754" lon="6.0019">
        <ele>907.14</ele>
        <time>2013-06-07T13:38:31Z</time>
      </trkpt>
      <trkpt lat="44.22758" lon="6.00199">
        <ele>909.06</ele>
        <time>2013-06-07T13:38:40Z</time>
      </trkpt>
      <trkpt lat="44.22759" lon="6.00202">
        <ele>910.03</ele>
        <time>2013-06-07T13:38:43Z</time>
      </trkpt>
      <trkpt lat="44.2276" lon="6.00203">
        <ele>907.62</ele>
        <time>2013-06-07T13:38:44Z</time>
      </trkpt>
      <trkpt lat="44.22761" lon="6.00206">
        <ele>908.58</ele>
        <time>2013-06-07T13:38:46Z</time>
      </trkpt>
      <trkpt lat="44.22762" lon="6.00207">
        <ele>910.51</ele>
        <time>2013-06-07T13:38:47Z</time>
      </trkpt>
      <trkpt lat="44.22762" lon="6.00207">
        <ele>908.58</ele>
        <time>2013-06-07T13:38:48Z</time>
      </trkpt>
      <trkpt lat="44.22763" lon="6.00208">
        <ele>910.99</ele>
        <time>2013-06-07T13:38:49Z</time>
      </trkpt>
      <trkpt lat="44.22765" lon="6.00211">
        <ele>910.99</ele>
        <time>2013-06-07T13:38:52Z</time>
      </trkpt>
      <trkpt lat="44.22766" lon="6.00212">
        <ele>910.99</ele>
        <time>2013-06-07T13:38:54Z</time>
      </trkpt>
      <trkpt lat="44.22768" lon="6.00221">
        <ele>908.1</ele>
        <time>2013-06-07T13:39:04Z</time>
      </trkpt>
      <trkpt lat="44.22769" lon="6.00221">
        <ele>913.39</ele>
        <time>2013-06-07T13:39:05Z</time>
      </trkpt>
      <trkpt lat="44.22769" lon="6.00222">
        <ele>910.99</ele>
        <time>2013-06-07T13:39:06Z</time>
      </trkpt>
      <trkpt lat="44.22769" lon="6.00223">
        <ele>909.06</ele>
        <time>2013-06-07T13:39:08Z</time>
      </trkpt>
      <trkpt lat="44.22769" lon="6.00222">
        <ele>913.39</ele>
        <time>2013-06-07T13:39:09Z</time>
      </trkpt>
      <trkpt lat="44.22768" lon="6.00223">
        <ele>910.99</ele>
        <time>2013-06-07T13:39:10Z</time>
      </trkpt>
      <trkpt lat="44.22768" lon="6.00223">
        <ele>912.91</ele>
        <time>2013-06-07T13:39:11Z</time>
      </trkpt>
      <trkpt lat="44.22768" lon="6.00223">
        <ele>910.51</ele>
        <time>2013-06-07T13:39:12Z</time>
      </trkpt>
      <trkpt lat="44.22768" lon="6.00224">
        <ele>913.39</ele>
        <time>2013-06-07T13:39:13Z</time>
      </trkpt>
      <trkpt lat="44.2277" lon="6.00229">
        <ele>911.95</ele>
        <time>2013-06-07T13:39:22Z</time>
      </trkpt>
      <trkpt lat="44.2277" lon="6.00229">
        <ele>913.39</ele>
        <time>2013-06-07T13:39:23Z</time>
      </trkpt>
      <trkpt lat="44.2277" lon="6.0023">
        <ele>912.43</ele>
        <time>2013-06-07T13:39:24Z</time>
      </trkpt>
      <trkpt lat="44.22771" lon="6.00231">
        <ele>914.83</ele>
        <time>2013-06-07T13:39:25Z</time>
      </trkpt>
      <trkpt lat="44.22771" lon="6.00232">
        <ele>912.91</ele>
        <time>2013-06-07T13:39:26Z</time>
      </trkpt>
      <trkpt lat="44.22773" lon="6.00234">
        <ele>914.35</ele>
        <time>2013-06-07T13:39:32Z</time>
      </trkpt>
      <trkpt lat="44.22773" lon="6.00237">
        <ele>915.31</ele>
        <time>2013-06-07T13:39:35Z</time>
      </trkpt>
      <trkpt lat="44.22773" lon="6.00238">
        <ele>913.39</ele>
        <time>2013-06-07T13:39:36Z</time>
      </trkpt>
      <trkpt lat="44.22777" lon="6.00243">
        <ele>913.87</ele>
        <time>2013-06-07T13:39:42Z</time>
      </trkpt>
      <trkpt lat="44.22777" lon="6.00244">
        <ele>916.75</ele>
        <time>2013-06-07T13:39:43Z</time>
      </trkpt>
      <trkpt lat="44.22778" lon="6.00244">
        <ele>914.35</ele>
        <time>2013-06-07T13:39:44Z</time>
      </trkpt>
      <trkpt lat="44.22778" lon="6.00245">
        <ele>918.2</ele>
        <time>2013-06-07T13:39:45Z</time>
      </trkpt>
      <trkpt lat="44.22778" lon="6.00245">
        <ele>913.39</ele>
        <time>2013-06-07T13:39:46Z</time>
      </trkpt>
      <trkpt lat="44.22779" lon="6.00246">
        <ele>917.24</ele>
        <time>2013-06-07T13:39:47Z</time>
      </trkpt>
      <trkpt lat="44.22783" lon="6.00251">
        <ele>917.72</ele>
        <time>2013-06-07T13:39:54Z</time>
      </trkpt>
      <trkpt lat="44.22783" lon="6.00252">
        <ele>916.27</ele>
        <time>2013-06-07T13:39:55Z</time>
      </trkpt>
      <trkpt lat="44.22783" lon="6.00252">
        <ele>918.68</ele>
        <time>2013-06-07T13:39:56Z</time>
      </trkpt>
      <trkpt lat="44.22784" lon="6.00253">
        <ele>916.27</ele>
        <time>2013-06-07T13:39:57Z</time>
      </trkpt>
      <trkpt lat="44.22784" lon="6.00254">
        <ele>919.16</ele>
        <time>2013-06-07T13:39:58Z</time>
      </trkpt>
      <trkpt lat="44.22784" lon="6.00255">
        <ele>916.75</ele>
        <time>2013-06-07T13:39:59Z</time>
      </trkpt>
      <trkpt lat="44.22785" lon="6.00258">
        <ele>916.27</ele>
        <time>2013-06-07T13:40:03Z</time>
      </trkpt>
      <trkpt lat="44.22785" lon="6.00259">
        <ele>916.75</ele>
        <time>2013-06-07T13:40:05Z</time>
      </trkpt>
      <trkpt lat="44.22786" lon="6.0026">
        <ele>919.16</ele>
        <time>2013-06-07T13:40:06Z</time>
      </trkpt>
      <trkpt lat="44.2279" lon="6.00266">
        <ele>919.64</ele>
        <time>2013-06-07T13:40:13Z</time>
      </trkpt>
      <trkpt lat="44.22791" lon="6.00267">
        <ele>917.24</ele>
        <time>2013-06-07T13:40:14Z</time>
      </trkpt>
      <trkpt lat="44.22791" lon="6.00268">
        <ele>919.64</ele>
        <time>2013-06-07T13:40:15Z</time>
      </trkpt>
      <trkpt lat="44.22791" lon="6.00269">
        <ele>918.2</ele>
        <time>2013-06-07T13:40:16Z</time>
      </trkpt>
      <trkpt lat="44.22791" lon="6.00271">
        <ele>917.72</ele>
        <time>2013-06-07T13:40:19Z</time>
      </trkpt>
      <trkpt lat="44.22791" lon="6.00272">
        <ele>920.6</ele>
        <time>2013-06-07T13:40:20Z</time>
      </trkpt>
      <trkpt lat="44.22791" lon="6.00273">
        <ele>917.72</ele>
        <time>2013-06-07T13:40:21Z</time>
      </trkpt>
      <trkpt lat="44.22791" lon="6.00273">
        <ele>920.6</ele>
        <time>2013-06-07T13:40:22Z</time>
      </trkpt>
      <trkpt lat="44.22791" lon="6.00274">
        <ele>918.2</ele>
        <time>2013-06-07T13:40:23Z</time>
      </trkpt>
      <trkpt lat="44.22792" lon="6.00274">
        <ele>920.12</ele>
        <time>2013-06-07T13:40:24Z</time>
      </trkpt>
      <trkpt lat="44.22793" lon="6.00276">
        <ele>921.56</ele>
        <time>2013-06-07T13:40:26Z</time>
      </trkpt>
      <trkpt lat="44.22795" lon="6.00281">
        <ele>919.16</ele>
        <time>2013-06-07T13:40:31Z</time>
      </trkpt>
      <trkpt lat="44.22795" lon="6.00282">
        <ele>923</ele>
        <time>2013-06-07T13:40:32Z</time>
      </trkpt>
      <trkpt lat="44.22795" lon="6.00283">
        <ele>919.64</ele>
        <time>2013-06-07T13:40:33Z</time>
      </trkpt>
      <trkpt lat="44.22794" lon="6.00284">
        <ele>923</ele>
        <time>2013-06-07T13:40:34Z</time>
      </trkpt>
      <trkpt lat="44.22794" lon="6.00285">
        <ele>920.12</ele>
        <time>2013-06-07T13:40:35Z</time>
      </trkpt>
      <trkpt lat="44.22794" lon="6.00285">
        <ele>922.52</ele>
        <time>2013-06-07T13:40:36Z</time>
      </trkpt>
      <trkpt lat="44.22794" lon="6.00286">
        <ele>919.64</ele>
        <time>2013-06-07T13:40:37Z</time>
      </trkpt>
      <trkpt lat="44.22795" lon="6.00286">
        <ele>922.52</ele>
        <time>2013-06-07T13:40:38Z</time>
      </trkpt>
      <trkpt lat="44.22795" lon="6.00287">
        <ele>921.08</ele>
        <time>2013-06-07T13:40:39Z</time>
      </trkpt>
      <trkpt lat="44.22796" lon="6.00288">
        <ele>922.04</ele>
        <time>2013-06-07T13:40:40Z</time>
      </trkpt>
      <trkpt lat="44.22796" lon="6.00289">
        <ele>922.04</ele>
        <time>2013-06-07T13:40:41Z</time>
      </trkpt>
      <trkpt lat="44.22797" lon="6.00291">
        <ele>920.12</ele>
        <time>2013-06-07T13:40:43Z</time>
      </trkpt>
      <trkpt lat="44.22798" lon="6.00291">
        <ele>923.96</ele>
        <time>2013-06-07T13:40:44Z</time>
      </trkpt>
      <trkpt lat="44.22798" lon="6.00292">
        <ele>920.6</ele>
        <time>2013-06-07T13:40:45Z</time>
      </trkpt>
      <trkpt lat="44.22798" lon="6.00293">
        <ele>924.45</ele>
        <time>2013-06-07T13:40:46Z</time>
      </trkpt>
      <trkpt lat="44.22799" lon="6.00294">
        <ele>920.6</ele>
        <time>2013-06-07T13:40:47Z</time>
      </trkpt>
      <trkpt lat="44.22799" lon="6.00295">
        <ele>924.45</ele>
        <time>2013-06-07T13:40:48Z</time>
      </trkpt>
      <trkpt lat="44.22799" lon="6.00301">
        <ele>925.41</ele>
        <time>2013-06-07T13:40:57Z</time>
      </trkpt>
      <trkpt lat="44.22799" lon="6.00302">
        <ele>922.52</ele>
        <time>2013-06-07T13:40:58Z</time>
      </trkpt>
      <trkpt lat="44.228" lon="6.00303">
        <ele>925.41</ele>
        <time>2013-06-07T13:40:59Z</time>
      </trkpt>
      <trkpt lat="44.22803" lon="6.00309">
        <ele>926.85</ele>
        <time>2013-06-07T13:41:06Z</time>
      </trkpt>
      <trkpt lat="44.22803" lon="6.0031">
        <ele>924.45</ele>
        <time>2013-06-07T13:41:07Z</time>
      </trkpt>
      <trkpt lat="44.22803" lon="6.00311">
        <ele>926.85</ele>
        <time>2013-06-07T13:41:08Z</time>
      </trkpt>
      <trkpt lat="44.22803" lon="6.00312">
        <ele>923.96</ele>
        <time>2013-06-07T13:41:09Z</time>
      </trkpt>
      <trkpt lat="44.22805" lon="6.00313">
        <ele>924.93</ele>
        <time>2013-06-07T13:41:11Z</time>
      </trkpt>
      <trkpt lat="44.22805" lon="6.00315">
        <ele>926.85</ele>
        <time>2013-06-07T13:41:14Z</time>
      </trkpt>
      <trkpt lat="44.22806" lon="6.00316">
        <ele>925.41</ele>
        <time>2013-06-07T13:41:15Z</time>
      </trkpt>
      <trkpt lat="44.22808" lon="6.00324">
        <ele>927.33</ele>
        <time>2013-06-07T13:41:25Z</time>
      </trkpt>
      <trkpt lat="44.22808" lon="6.00326">
        <ele>927.81</ele>
        <time>2013-06-07T13:41:27Z</time>
      </trkpt>
      <trkpt lat="44.22809" lon="6.00328">
        <ele>926.37</ele>
        <time>2013-06-07T13:41:29Z</time>
      </trkpt>
      <trkpt lat="44.22809" lon="6.00328">
        <ele>927.81</ele>
        <time>2013-06-07T13:41:30Z</time>
      </trkpt>
      <trkpt lat="44.2281" lon="6.0033">
        <ele>929.25</ele>
        <time>2013-06-07T13:41:32Z</time>
      </trkpt>
      <trkpt lat="44.22811" lon="6.00331">
        <ele>926.85</ele>
        <time>2013-06-07T13:41:33Z</time>
      </trkpt>
      <trkpt lat="44.22812" lon="6.00332">
        <ele>926.85</ele>
        <time>2013-06-07T13:41:35Z</time>
      </trkpt>
      <trkpt lat="44.22812" lon="6.00332">
        <ele>931.17</ele>
        <time>2013-06-07T13:41:36Z</time>
      </trkpt>
      <trkpt lat="44.22813" lon="6.00332">
        <ele>926.85</ele>
        <time>2013-06-07T13:41:37Z</time>
      </trkpt>
      <trkpt lat="44.22813" lon="6.00332">
        <ele>930.21</ele>
        <time>2013-06-07T13:41:38Z</time>
      </trkpt>
      <trkpt lat="44.22813" lon="6.00332">
        <ele>928.29</ele>
        <time>2013-06-07T13:41:39Z</time>
      </trkpt>
      <trkpt lat="44.22814" lon="6.00332">
        <ele>931.17</ele>
        <time>2013-06-07T13:41:40Z</time>
      </trkpt>
      <trkpt lat="44.22814" lon="6.00332">
        <ele>931.17</ele>
        <time>2013-06-07T13:41:41Z</time>
      </trkpt>
      <trkpt lat="44.22814" lon="6.00331">
        <ele>929.73</ele>
        <time>2013-06-07T13:41:42Z</time>
      </trkpt>
      <trkpt lat="44.22816" lon="6.00331">
        <ele>931.17</ele>
        <time>2013-06-07T13:41:46Z</time>
      </trkpt>
      <trkpt lat="44.22816" lon="6.00331">
        <ele>928.29</ele>
        <time>2013-06-07T13:41:47Z</time>
      </trkpt>
      <trkpt lat="44.22817" lon="6.00331">
        <ele>930.69</ele>
        <time>2013-06-07T13:41:48Z</time>
      </trkpt>
      <trkpt lat="44.22832" lon="6.00337">
        <ele>931.65</ele>
        <time>2013-06-07T13:41:51Z</time>
      </trkpt>
      <trkpt lat="44.22839" lon="6.00335">
        <ele>931.65</ele>
        <time>2013-06-07T13:42:02Z</time>
      </trkpt>
      <trkpt lat="44.22844" lon="6.00334">
        <ele>932.14</ele>
        <time>2013-06-07T13:42:11Z</time>
      </trkpt>
      <trkpt lat="44.22846" lon="6.00335">
        <ele>935.98</ele>
        <time>2013-06-07T13:42:15Z</time>
      </trkpt>
      <trkpt lat="44.22851" lon="6.00335">
        <ele>935.02</ele>
        <time>2013-06-07T13:42:24Z</time>
      </trkpt>
      <trkpt lat="44.22854" lon="6.00332">
        <ele>934.54</ele>
        <time>2013-06-07T13:42:30Z</time>
      </trkpt>
      <trkpt lat="44.22855" lon="6.00332">
        <ele>936.46</ele>
        <time>2013-06-07T13:42:32Z</time>
      </trkpt>
      <trkpt lat="44.2286" lon="6.0033">
        <ele>936.94</ele>
        <time>2013-06-07T13:42:42Z</time>
      </trkpt>
      <trkpt lat="44.22864" lon="6.00327">
        <ele>937.9</ele>
        <time>2013-06-07T13:42:51Z</time>
      </trkpt>
      <trkpt lat="44.22865" lon="6.00327">
        <ele>940.79</ele>
        <time>2013-06-07T13:42:52Z</time>
      </trkpt>
      <trkpt lat="44.22867" lon="6.00327">
        <ele>936.46</ele>
        <time>2013-06-07T13:42:55Z</time>
      </trkpt>
      <trkpt lat="44.22867" lon="6.00327">
        <ele>942.71</ele>
        <time>2013-06-07T13:42:56Z</time>
      </trkpt>
      <trkpt lat="44.2287" lon="6.00324">
        <ele>942.23</ele>
        <time>2013-06-07T13:43:06Z</time>
      </trkpt>
      <trkpt lat="44.22874" lon="6.0032">
        <ele>944.15</ele>
        <time>2013-06-07T13:43:17Z</time>
      </trkpt>
      <trkpt lat="44.22879" lon="6.00322">
        <ele>943.19</ele>
        <time>2013-06-07T13:43:27Z</time>
      </trkpt>
      <trkpt lat="44.22879" lon="6.00321">
        <ele>947.04</ele>
        <time>2013-06-07T13:43:28Z</time>
      </trkpt>
      <trkpt lat="44.22879" lon="6.00321">
        <ele>943.19</ele>
        <time>2013-06-07T13:43:29Z</time>
      </trkpt>
      <trkpt lat="44.22879" lon="6.00321">
        <ele>947.52</ele>
        <time>2013-06-07T13:43:30Z</time>
      </trkpt>
      <trkpt lat="44.22882" lon="6.00319">
        <ele>946.56</ele>
        <time>2013-06-07T13:43:39Z</time>
      </trkpt>
      <trkpt lat="44.2288" lon="6.00319">
        <ele>947.04</ele>
        <time>2013-06-07T13:43:52Z</time>
      </trkpt>
      <trkpt lat="44.2288" lon="6.00322">
        <ele>947.04</ele>
        <time>2013-06-07T13:44:04Z</time>
      </trkpt>
      <trkpt lat="44.22881" lon="6.00323">
        <ele>947.04</ele>
        <time>2013-06-07T13:44:14Z</time>
      </trkpt>
      <trkpt lat="44.2288" lon="6.00318">
        <ele>947.52</ele>
        <time>2013-06-07T13:44:41Z</time>
      </trkpt>
      <trkpt lat="44.22881" lon="6.00316">
        <ele>947.52</ele>
        <time>2013-06-07T13:44:51Z</time>
      </trkpt>
      <trkpt lat="44.22881" lon="6.00317">
        <ele>947.52</ele>
        <time>2013-06-07T13:45:11Z</time>
      </trkpt>
      <trkpt lat="44.22885" lon="6.00311">
        <ele>947.52</ele>
        <time>2013-06-07T13:45:21Z</time>
      </trkpt>
      <trkpt lat="44.22883" lon="6.00321">
        <ele>947.52</ele>
        <time>2013-06-07T13:45:38Z</time>
      </trkpt>
      <trkpt lat="44.22884" lon="6.00324">
        <ele>948</ele>
        <time>2013-06-07T13:46:00Z</time>
      </trkpt>
      <trkpt lat="44.22885" lon="6.00323">
        <ele>948</ele>
        <time>2013-06-07T13:46:32Z</time>
      </trkpt>
      <trkpt lat="44.22884" lon="6.00322">
        <ele>948</ele>
        <time>2013-06-07T13:47:03Z</time>
      </trkpt>
      <trkpt lat="44.22886" lon="6.00322">
        <ele>948</ele>
        <time>2013-06-07T13:47:33Z</time>
      </trkpt>
      <trkpt lat="44.22885" lon="6.00323">
        <ele>948</ele>
        <time>2013-06-07T13:48:02Z</time>
      </trkpt>
      <trkpt lat="44.22887" lon="6.00322">
        <ele>948</ele>
        <time>2013-06-07T13:48:35Z</time>
      </trkpt>
      <trkpt lat="44.22887" lon="6.00317">
        <ele>947.52</ele>
        <time>2013-06-07T13:49:00Z</time>
      </trkpt>
      <trkpt lat="44.2289" lon="6.00322">
        <ele>947.52</ele>
        <time>2013-06-07T13:49:32Z</time>
      </trkpt>
      <trkpt lat="44.22889" lon="6.00323">
        <ele>947.52</ele>
        <time>2013-06-07T13:50:04Z</time>
      </trkpt>
      <trkpt lat="44.22886" lon="6.00321">
        <ele>950.88</ele>
        <time>2013-06-07T13:50:11Z</time>
      </trkpt>
      <trkpt lat="44.22882" lon="6.0032">
        <ele>947.52</ele>
        <time>2013-06-07T13:50:14Z</time>
      </trkpt>
      <trkpt lat="44.2288" lon="6.00319">
        <ele>947.52</ele>
        <time>2013-06-07T13:50:37Z</time>
      </trkpt>
      <trkpt lat="44.2288" lon="6.0032">
        <ele>948</ele>
        <time>2013-06-07T13:51:05Z</time>
      </trkpt>
      <trkpt lat="44.22882" lon="6.00321">
        <ele>948</ele>
        <time>2013-06-07T13:51:16Z</time>
      </trkpt>
      <trkpt lat="44.22882" lon="6.0032">
        <ele>948.96</ele>
        <time>2013-06-07T13:51:20Z</time>
      </trkpt>
      <trkpt lat="44.22883" lon="6.0032">
        <ele>948</ele>
        <time>2013-06-07T13:51:22Z</time>
      </trkpt>
      <trkpt lat="44.22888" lon="6.00317">
        <ele>948.48</ele>
        <time>2013-06-07T13:51:28Z</time>
      </trkpt>
      <trkpt lat="44.22889" lon="6.0032">
        <ele>948.96</ele>
        <time>2013-06-07T13:51:38Z</time>
      </trkpt>
      <trkpt lat="44.22891" lon="6.0032">
        <ele>948.96</ele>
        <time>2013-06-07T13:51:44Z</time>
      </trkpt>
      <trkpt lat="44.22902" lon="6.00317">
        <ele>949.44</ele>
        <time>2013-06-07T13:51:54Z</time>
      </trkpt>
      <trkpt lat="44.22903" lon="6.00316">
        <ele>949.92</ele>
        <time>2013-06-07T13:51:55Z</time>
      </trkpt>
      <trkpt lat="44.22906" lon="6.00308">
        <ele>950.4</ele>
        <time>2013-06-07T13:52:03Z</time>
      </trkpt>
      <trkpt lat="44.22906" lon="6.00304">
        <ele>950.4</ele>
        <time>2013-06-07T13:52:06Z</time>
      </trkpt>
      <trkpt lat="44.22905" lon="6.003">
        <ele>949.92</ele>
        <time>2013-06-07T13:52:10Z</time>
      </trkpt>
      <trkpt lat="44.22903" lon="6.00286">
        <ele>950.88</ele>
        <time>2013-06-07T13:52:21Z</time>
      </trkpt>
      <trkpt lat="44.22898" lon="6.00277">
        <ele>949.92</ele>
        <time>2013-06-07T13:52:32Z</time>
      </trkpt>
      <trkpt lat="44.22895" lon="6.00267">
        <ele>953.77</ele>
        <time>2013-06-07T13:52:43Z</time>
      </trkpt>
      <trkpt lat="44.22894" lon="6.0026">
        <ele>952.32</ele>
        <time>2013-06-07T13:52:50Z</time>
      </trkpt>
      <trkpt lat="44.22893" lon="6.00249">
        <ele>953.28</ele>
        <time>2013-06-07T13:53:02Z</time>
      </trkpt>
      <trkpt lat="44.22894" lon="6.00242">
        <ele>957.13</ele>
        <time>2013-06-07T13:53:10Z</time>
      </trkpt>
      <trkpt lat="44.22892" lon="6.00238">
        <ele>956.17</ele>
        <time>2013-06-07T13:53:13Z</time>
      </trkpt>
      <trkpt lat="44.22887" lon="6.00225">
        <ele>956.17</ele>
        <time>2013-06-07T13:53:24Z</time>
      </trkpt>
      <trkpt lat="44.22881" lon="6.00216">
        <ele>956.65</ele>
        <time>2013-06-07T13:53:33Z</time>
      </trkpt>
      <trkpt lat="44.22872" lon="6.00208">
        <ele>956.17</ele>
        <time>2013-06-07T13:53:44Z</time>
      </trkpt>
      <trkpt lat="44.22864" lon="6.00197">
        <ele>956.65</ele>
        <time>2013-06-07T13:53:57Z</time>
      </trkpt>
      <trkpt lat="44.22864" lon="6.00189">
        <ele>955.69</ele>
        <time>2013-06-07T13:54:06Z</time>
      </trkpt>
      <trkpt lat="44.22864" lon="6.00189">
        <ele>958.57</ele>
        <time>2013-06-07T13:54:07Z</time>
      </trkpt>
      <trkpt lat="44.22864" lon="6.00187">
        <ele>957.13</ele>
        <time>2013-06-07T13:54:08Z</time>
      </trkpt>
      <trkpt lat="44.22865" lon="6.00184">
        <ele>959.05</ele>
        <time>2013-06-07T13:54:11Z</time>
      </trkpt>
      <trkpt lat="44.22865" lon="6.00181">
        <ele>957.61</ele>
        <time>2013-06-07T13:54:14Z</time>
      </trkpt>
      <trkpt lat="44.22867" lon="6.00175">
        <ele>957.61</ele>
        <time>2013-06-07T13:54:20Z</time>
      </trkpt>
      <trkpt lat="44.22869" lon="6.00174">
        <ele>959.53</ele>
        <time>2013-06-07T13:54:22Z</time>
      </trkpt>
      <trkpt lat="44.2287" lon="6.00171">
        <ele>957.13</ele>
        <time>2013-06-07T13:54:24Z</time>
      </trkpt>
      <trkpt lat="44.22872" lon="6.00161">
        <ele>959.53</ele>
        <time>2013-06-07T13:54:32Z</time>
      </trkpt>
      <trkpt lat="44.22872" lon="6.00158">
        <ele>959.05</ele>
        <time>2013-06-07T13:54:35Z</time>
      </trkpt>
      <trkpt lat="44.22871" lon="6.00152">
        <ele>958.09</ele>
        <time>2013-06-07T13:54:39Z</time>
      </trkpt>
      <trkpt lat="44.22871" lon="6.00151">
        <ele>959.53</ele>
        <time>2013-06-07T13:54:40Z</time>
      </trkpt>
      <trkpt lat="44.22869" lon="6.00149">
        <ele>960.01</ele>
        <time>2013-06-07T13:54:43Z</time>
      </trkpt>
      <trkpt lat="44.22868" lon="6.00147">
        <ele>961.46</ele>
        <time>2013-06-07T13:54:46Z</time>
      </trkpt>
      <trkpt lat="44.22867" lon="6.00146">
        <ele>959.53</ele>
        <time>2013-06-07T13:54:47Z</time>
      </trkpt>
      <trkpt lat="44.22864" lon="6.00141">
        <ele>961.94</ele>
        <time>2013-06-07T13:54:53Z</time>
      </trkpt>
      <trkpt lat="44.2286" lon="6.00133">
        <ele>962.42</ele>
        <time>2013-06-07T13:55:03Z</time>
      </trkpt>
      <trkpt lat="44.22857" lon="6.00124">
        <ele>963.38</ele>
        <time>2013-06-07T13:55:12Z</time>
      </trkpt>
      <trkpt lat="44.22857" lon="6.00123">
        <ele>961.94</ele>
        <time>2013-06-07T13:55:13Z</time>
      </trkpt>
      <trkpt lat="44.22857" lon="6.00122">
        <ele>962.9</ele>
        <time>2013-06-07T13:55:14Z</time>
      </trkpt>
      <trkpt lat="44.22858" lon="6.00117">
        <ele>961.94</ele>
        <time>2013-06-07T13:55:20Z</time>
      </trkpt>
      <trkpt lat="44.22858" lon="6.00116">
        <ele>964.82</ele>
        <time>2013-06-07T13:55:21Z</time>
      </trkpt>
      <trkpt lat="44.22858" lon="6.00115">
        <ele>962.9</ele>
        <time>2013-06-07T13:55:22Z</time>
      </trkpt>
      <trkpt lat="44.22858" lon="6.00115">
        <ele>963.38</ele>
        <time>2013-06-07T13:55:23Z</time>
      </trkpt>
      <trkpt lat="44.22859" lon="6.00111">
        <ele>964.82</ele>
        <time>2013-06-07T13:55:26Z</time>
      </trkpt>
      <trkpt lat="44.22859" lon="6.0011">
        <ele>963.38</ele>
        <time>2013-06-07T13:55:27Z</time>
      </trkpt>
      <trkpt lat="44.22863" lon="6.001">
        <ele>965.3</ele>
        <time>2013-06-07T13:55:36Z</time>
      </trkpt>
      <trkpt lat="44.22863" lon="6.00098">
        <ele>964.82</ele>
        <time>2013-06-07T13:55:38Z</time>
      </trkpt>
      <trkpt lat="44.22865" lon="6.00096">
        <ele>964.82</ele>
        <time>2013-06-07T13:55:41Z</time>
      </trkpt>
      <trkpt lat="44.22866" lon="6.00093">
        <ele>965.3</ele>
        <time>2013-06-07T13:55:44Z</time>
      </trkpt>
      <trkpt lat="44.22869" lon="6.00087">
        <ele>963.86</ele>
        <time>2013-06-07T13:55:52Z</time>
      </trkpt>
      <trkpt lat="44.22871" lon="6.00084">
        <ele>966.74</ele>
        <time>2013-06-07T13:55:56Z</time>
      </trkpt>
      <trkpt lat="44.22873" lon="6.00079">
        <ele>966.74</ele>
        <time>2013-06-07T13:56:01Z</time>
      </trkpt>
      <trkpt lat="44.22873" lon="6.00078">
        <ele>966.26</ele>
        <time>2013-06-07T13:56:02Z</time>
      </trkpt>
      <trkpt lat="44.22873" lon="6.0007">
        <ele>967.7</ele>
        <time>2013-06-07T13:56:11Z</time>
      </trkpt>
      <trkpt lat="44.2287" lon="6.00063">
        <ele>968.18</ele>
        <time>2013-06-07T13:56:19Z</time>
      </trkpt>
      <trkpt lat="44.22867" lon="6.00051">
        <ele>966.74</ele>
        <time>2013-06-07T13:56:28Z</time>
      </trkpt>
      <trkpt lat="44.22865" lon="6.00044">
        <ele>966.74</ele>
        <time>2013-06-07T13:56:35Z</time>
      </trkpt>
      <trkpt lat="44.22865" lon="6.00043">
        <ele>969.15</ele>
        <time>2013-06-07T13:56:36Z</time>
      </trkpt>
      <trkpt lat="44.22865" lon="6.00038">
        <ele>969.15</ele>
        <time>2013-06-07T13:56:41Z</time>
      </trkpt>
      <trkpt lat="44.22864" lon="6.00037">
        <ele>967.7</ele>
        <time>2013-06-07T13:56:42Z</time>
      </trkpt>
      <trkpt lat="44.22864" lon="6.00035">
        <ele>969.15</ele>
        <time>2013-06-07T13:56:43Z</time>
      </trkpt>
      <trkpt lat="44.22863" lon="6.00033">
        <ele>970.59</ele>
        <time>2013-06-07T13:56:46Z</time>
      </trkpt>
      <trkpt lat="44.22863" lon="6.00032">
        <ele>968.67</ele>
        <time>2013-06-07T13:56:47Z</time>
      </trkpt>
      <trkpt lat="44.22857" lon="6.00019">
        <ele>969.15</ele>
        <time>2013-06-07T13:56:58Z</time>
      </trkpt>
      <trkpt lat="44.22854" lon="6.0001">
        <ele>970.11</ele>
        <time>2013-06-07T13:57:11Z</time>
      </trkpt>
      <trkpt lat="44.22854" lon="5.99997">
        <ele>970.59</ele>
        <time>2013-06-07T13:57:20Z</time>
      </trkpt>
      <trkpt lat="44.22854" lon="5.99984">
        <ele>972.51</ele>
        <time>2013-06-07T13:57:33Z</time>
      </trkpt>
      <trkpt lat="44.22854" lon="5.99975">
        <ele>973.47</ele>
        <time>2013-06-07T13:57:46Z</time>
      </trkpt>
      <trkpt lat="44.22854" lon="5.99965">
        <ele>973.95</ele>
        <time>2013-06-07T13:57:56Z</time>
      </trkpt>
      <trkpt lat="44.22855" lon="5.99955">
        <ele>976.84</ele>
        <time>2013-06-07T13:58:04Z</time>
      </trkpt>
      <trkpt lat="44.22854" lon="5.9995">
        <ele>976.84</ele>
        <time>2013-06-07T13:58:09Z</time>
      </trkpt>
      <trkpt lat="44.22855" lon="5.99943">
        <ele>977.32</ele>
        <time>2013-06-07T13:58:19Z</time>
      </trkpt>
      <trkpt lat="44.22856" lon="5.99929">
        <ele>978.28</ele>
        <time>2013-06-07T13:58:29Z</time>
      </trkpt>
      <trkpt lat="44.22855" lon="5.99917">
        <ele>980.68</ele>
        <time>2013-06-07T13:58:39Z</time>
      </trkpt>
      <trkpt lat="44.22854" lon="5.99908">
        <ele>981.64</ele>
        <time>2013-06-07T13:58:48Z</time>
      </trkpt>
      <trkpt lat="44.22854" lon="5.99895">
        <ele>983.09</ele>
        <time>2013-06-07T13:59:00Z</time>
      </trkpt>
      <trkpt lat="44.22853" lon="5.99888">
        <ele>983.09</ele>
        <time>2013-06-07T13:59:10Z</time>
      </trkpt>
      <trkpt lat="44.22853" lon="5.9988">
        <ele>984.53</ele>
        <time>2013-06-07T13:59:17Z</time>
      </trkpt>
      <trkpt lat="44.22853" lon="5.99871">
        <ele>986.45</ele>
        <time>2013-06-07T13:59:24Z</time>
      </trkpt>
      <trkpt lat="44.22852" lon="5.99861">
        <ele>985.49</ele>
        <time>2013-06-07T13:59:34Z</time>
      </trkpt>
      <trkpt lat="44.22852" lon="5.99848">
        <ele>985.97</ele>
        <time>2013-06-07T13:59:45Z</time>
      </trkpt>
      <trkpt lat="44.22851" lon="5.99836">
        <ele>985.97</ele>
        <time>2013-06-07T13:59:55Z</time>
      </trkpt>
      <trkpt lat="44.22849" lon="5.9982">
        <ele>988.37</ele>
        <time>2013-06-07T14:00:08Z</time>
      </trkpt>
      <trkpt lat="44.22848" lon="5.9981">
        <ele>987.89</ele>
        <time>2013-06-07T14:00:19Z</time>
      </trkpt>
      <trkpt lat="44.22846" lon="5.99806">
        <ele>989.33</ele>
        <time>2013-06-07T14:00:31Z</time>
      </trkpt>
      <trkpt lat="44.22844" lon="5.99804">
        <ele>989.81</ele>
        <time>2013-06-07T14:00:53Z</time>
      </trkpt>
      <trkpt lat="44.22847" lon="5.99807">
        <ele>989.81</ele>
        <time>2013-06-07T14:01:20Z</time>
      </trkpt>
      <trkpt lat="44.22849" lon="5.99808">
        <ele>990.78</ele>
        <time>2013-06-07T14:01:51Z</time>
      </trkpt>
      <trkpt lat="44.22849" lon="5.99805">
        <ele>991.26</ele>
        <time>2013-06-07T14:02:15Z</time>
      </trkpt>
      <trkpt lat="44.22847" lon="5.99804">
        <ele>991.26</ele>
        <time>2013-06-07T14:02:47Z</time>
      </trkpt>
      <trkpt lat="44.22848" lon="5.99804">
        <ele>990.78</ele>
        <time>2013-06-07T14:03:08Z</time>
      </trkpt>
      <trkpt lat="44.22846" lon="5.99807">
        <ele>991.26</ele>
        <time>2013-06-07T14:03:30Z</time>
      </trkpt>
      <trkpt lat="44.22846" lon="5.99805">
        <ele>991.74</ele>
        <time>2013-06-07T14:03:37Z</time>
      </trkpt>
      <trkpt lat="44.22845" lon="5.998">
        <ele>992.7</ele>
        <time>2013-06-07T14:03:41Z</time>
      </trkpt>
      <trkpt lat="44.22843" lon="5.99792">
        <ele>992.7</ele>
        <time>2013-06-07T14:03:46Z</time>
      </trkpt>
      <trkpt lat="44.22839" lon="5.99777">
        <ele>993.18</ele>
        <time>2013-06-07T14:03:57Z</time>
      </trkpt>
      <trkpt lat="44.22836" lon="5.99764">
        <ele>994.14</ele>
        <time>2013-06-07T14:04:07Z</time>
      </trkpt>
      <trkpt lat="44.22835" lon="5.99758">
        <ele>995.58</ele>
        <time>2013-06-07T14:04:12Z</time>
      </trkpt>
      <trkpt lat="44.22833" lon="5.99754">
        <ele>993.66</ele>
        <time>2013-06-07T14:04:16Z</time>
      </trkpt>
      <trkpt lat="44.2283" lon="5.99741">
        <ele>996.54</ele>
        <time>2013-06-07T14:04:26Z</time>
      </trkpt>
      <trkpt lat="44.22829" lon="5.99734">
        <ele>997.02</ele>
        <time>2013-06-07T14:04:31Z</time>
      </trkpt>
      <trkpt lat="44.22828" lon="5.99729">
        <ele>997.99</ele>
        <time>2013-06-07T14:04:35Z</time>
      </trkpt>
      <trkpt lat="44.22828" lon="5.99715">
        <ele>997.99</ele>
        <time>2013-06-07T14:04:46Z</time>
      </trkpt>
      <trkpt lat="44.22827" lon="5.99703">
        <ele>1000.87</ele>
        <time>2013-06-07T14:04:56Z</time>
      </trkpt>
      <trkpt lat="44.22827" lon="5.99701">
        <ele>1000.39</ele>
        <time>2013-06-07T14:04:57Z</time>
      </trkpt>
      <trkpt lat="44.22827" lon="5.99696">
        <ele>1001.35</ele>
        <time>2013-06-07T14:05:03Z</time>
      </trkpt>
      <trkpt lat="44.22826" lon="5.99688">
        <ele>1004.72</ele>
        <time>2013-06-07T14:05:10Z</time>
      </trkpt>
      <trkpt lat="44.22825" lon="5.99684">
        <ele>1001.83</ele>
        <time>2013-06-07T14:05:14Z</time>
      </trkpt>
      <trkpt lat="44.22824" lon="5.9968">
        <ele>1004.72</ele>
        <time>2013-06-07T14:05:18Z</time>
      </trkpt>
      <trkpt lat="44.22824" lon="5.99668">
        <ele>1004.23</ele>
        <time>2013-06-07T14:05:29Z</time>
      </trkpt>
      <trkpt lat="44.22825" lon="5.99665">
        <ele>1008.08</ele>
        <time>2013-06-07T14:05:32Z</time>
      </trkpt>
      <trkpt lat="44.22825" lon="5.99662">
        <ele>1005.68</ele>
        <time>2013-06-07T14:05:34Z</time>
      </trkpt>
      <trkpt lat="44.2283" lon="5.9965">
        <ele>1009.04</ele>
        <time>2013-06-07T14:05:46Z</time>
      </trkpt>
      <trkpt lat="44.2283" lon="5.99649">
        <ele>1008.56</ele>
        <time>2013-06-07T14:05:47Z</time>
      </trkpt>
      <trkpt lat="44.22835" lon="5.99637">
        <ele>1009.52</ele>
        <time>2013-06-07T14:05:57Z</time>
      </trkpt>
      <trkpt lat="44.22836" lon="5.99624">
        <ele>1009.52</ele>
        <time>2013-06-07T14:06:07Z</time>
      </trkpt>
      <trkpt lat="44.22828" lon="5.9962">
        <ele>1010.96</ele>
        <time>2013-06-07T14:06:18Z</time>
      </trkpt>
      <trkpt lat="44.22824" lon="5.9962">
        <ele>1010</ele>
        <time>2013-06-07T14:06:24Z</time>
      </trkpt>
      <trkpt lat="44.22818" lon="5.99616">
        <ele>1012.89</ele>
        <time>2013-06-07T14:06:31Z</time>
      </trkpt>
      <trkpt lat="44.22813" lon="5.99608">
        <ele>1013.37</ele>
        <time>2013-06-07T14:06:39Z</time>
      </trkpt>
      <trkpt lat="44.22809" lon="5.9959">
        <ele>1016.73</ele>
        <time>2013-06-07T14:06:51Z</time>
      </trkpt>
      <trkpt lat="44.22809" lon="5.99587">
        <ele>1014.81</ele>
        <time>2013-06-07T14:06:53Z</time>
      </trkpt>
      <trkpt lat="44.22806" lon="5.99571">
        <ele>1016.25</ele>
        <time>2013-06-07T14:07:03Z</time>
      </trkpt>
      <trkpt lat="44.22804" lon="5.99556">
        <ele>1017.21</ele>
        <time>2013-06-07T14:07:13Z</time>
      </trkpt>
      <trkpt lat="44.22804" lon="5.99541">
        <ele>1017.69</ele>
        <time>2013-06-07T14:07:23Z</time>
      </trkpt>
      <trkpt lat="44.22805" lon="5.99525">
        <ele>1017.21</ele>
        <time>2013-06-07T14:07:33Z</time>
      </trkpt>
      <trkpt lat="44.22805" lon="5.99521">
        <ele>1017.21</ele>
        <time>2013-06-07T14:07:35Z</time>
      </trkpt>
      <trkpt lat="44.22805" lon="5.99512">
        <ele>1017.21</ele>
        <time>2013-06-07T14:07:41Z</time>
      </trkpt>
      <trkpt lat="44.22807" lon="5.995">
        <ele>1018.17</ele>
        <time>2013-06-07T14:07:50Z</time>
      </trkpt>
      <trkpt lat="44.2281" lon="5.99485">
        <ele>1018.65</ele>
        <time>2013-06-07T14:07:59Z</time>
      </trkpt>
      <trkpt lat="44.22813" lon="5.99479">
        <ele>1018.17</ele>
        <time>2013-06-07T14:08:03Z</time>
      </trkpt>
      <trkpt lat="44.22812" lon="5.99464">
        <ele>1019.13</ele>
        <time>2013-06-07T14:08:13Z</time>
      </trkpt>
      <trkpt lat="44.22805" lon="5.99449">
        <ele>1020.58</ele>
        <time>2013-06-07T14:08:25Z</time>
      </trkpt>
      <trkpt lat="44.22802" lon="5.99442">
        <ele>1021.06</ele>
        <time>2013-06-07T14:08:30Z</time>
      </trkpt>
      <trkpt lat="44.22799" lon="5.99432">
        <ele>1021.06</ele>
        <time>2013-06-07T14:08:39Z</time>
      </trkpt>
      <trkpt lat="44.22798" lon="5.9943">
        <ele>1021.54</ele>
        <time>2013-06-07T14:08:56Z</time>
      </trkpt>
      <trkpt lat="44.228" lon="5.99428">
        <ele>1021.54</ele>
        <time>2013-06-07T14:09:26Z</time>
      </trkpt>
      <trkpt lat="44.22797" lon="5.9943">
        <ele>1021.54</ele>
        <time>2013-06-07T14:09:49Z</time>
      </trkpt>
      <trkpt lat="44.22797" lon="5.99429">
        <ele>1021.54</ele>
        <time>2013-06-07T14:10:20Z</time>
      </trkpt>
      <trkpt lat="44.22799" lon="5.99429">
        <ele>1021.54</ele>
        <time>2013-06-07T14:10:45Z</time>
      </trkpt>
      <trkpt lat="44.22798" lon="5.9943">
        <ele>1022.02</ele>
        <time>2013-06-07T14:11:13Z</time>
      </trkpt>
      <trkpt lat="44.22796" lon="5.99431">
        <ele>1022.02</ele>
        <time>2013-06-07T14:11:41Z</time>
      </trkpt>
      <trkpt lat="44.22797" lon="5.99431">
        <ele>1022.02</ele>
        <time>2013-06-07T14:11:58Z</time>
      </trkpt>
      <trkpt lat="44.22801" lon="5.9943">
        <ele>1022.02</ele>
        <time>2013-06-07T14:12:24Z</time>
      </trkpt>
      <trkpt lat="44.22799" lon="5.9943">
        <ele>1022.02</ele>
        <time>2013-06-07T14:12:50Z</time>
      </trkpt>
      <trkpt lat="44.22798" lon="5.9943">
        <ele>1022.5</ele>
        <time>2013-06-07T14:13:10Z</time>
      </trkpt>
      <trkpt lat="44.22797" lon="5.99428">
        <ele>1022.5</ele>
        <time>2013-06-07T14:13:28Z</time>
      </trkpt>
      <trkpt lat="44.22797" lon="5.99428">
        <ele>1022.5</ele>
        <time>2013-06-07T14:13:50Z</time>
      </trkpt>
      <trkpt lat="44.22796" lon="5.99429">
        <ele>1022.5</ele>
        <time>2013-06-07T14:14:11Z</time>
      </trkpt>
      <trkpt lat="44.22797" lon="5.99429">
        <ele>1017.21</ele>
        <time>2013-06-07T14:14:27Z</time>
      </trkpt>
      <trkpt lat="44.22797" lon="5.9943">
        <ele>1023.46</ele>
        <time>2013-06-07T14:14:28Z</time>
      </trkpt>
      <trkpt lat="44.22796" lon="5.9943">
        <ele>1020.58</ele>
        <time>2013-06-07T14:14:40Z</time>
      </trkpt>
      <trkpt lat="44.22796" lon="5.99429">
        <ele>1026.34</ele>
        <time>2013-06-07T14:14:43Z</time>
      </trkpt>
      <trkpt lat="44.22796" lon="5.99429">
        <ele>1022.98</ele>
        <time>2013-06-07T14:14:44Z</time>
      </trkpt>
      <trkpt lat="44.22796" lon="5.99429">
        <ele>1020.1</ele>
        <time>2013-06-07T14:14:56Z</time>
      </trkpt>
      <trkpt lat="44.22796" lon="5.9943">
        <ele>1023.94</ele>
        <time>2013-06-07T14:14:57Z</time>
      </trkpt>
      <trkpt lat="44.22798" lon="5.9943">
        <ele>1022.98</ele>
        <time>2013-06-07T14:15:12Z</time>
      </trkpt>
      <trkpt lat="44.22798" lon="5.99429">
        <ele>1022.5</ele>
        <time>2013-06-07T14:15:32Z</time>
      </trkpt>
      <trkpt lat="44.22798" lon="5.99431">
        <ele>1022.98</ele>
        <time>2013-06-07T14:15:56Z</time>
      </trkpt>
      <trkpt lat="44.22795" lon="5.99432">
        <ele>1022.98</ele>
        <time>2013-06-07T14:16:17Z</time>
      </trkpt>
      <trkpt lat="44.22801" lon="5.99435">
        <ele>1023.46</ele>
        <time>2013-06-07T14:16:36Z</time>
      </trkpt>
      <trkpt lat="44.22798" lon="5.99428">
        <ele>1023.46</ele>
        <time>2013-06-07T14:16:57Z</time>
      </trkpt>
      <trkpt lat="44.22797" lon="5.99428">
        <ele>1023.46</ele>
        <time>2013-06-07T14:17:15Z</time>
      </trkpt>
      <trkpt lat="44.22797" lon="5.9943">
        <ele>1023.46</ele>
        <time>2013-06-07T14:17:37Z</time>
      </trkpt>
      <trkpt lat="44.22798" lon="5.99427">
        <ele>1023.46</ele>
        <time>2013-06-07T14:18:02Z</time>
      </trkpt>
      <trkpt lat="44.22798" lon="5.99427">
        <ele>1023.46</ele>
        <time>2013-06-07T14:18:03Z</time>
      </trkpt>
      <trkpt lat="44.22796" lon="5.99416">
        <ele>1024.9</ele>
        <time>2013-06-07T14:18:15Z</time>
      </trkpt>
      <trkpt lat="44.22794" lon="5.99401">
        <ele>1025.86</ele>
        <time>2013-06-07T14:18:28Z</time>
      </trkpt>
      <trkpt lat="44.22791" lon="5.99384">
        <ele>1027.31</ele>
        <time>2013-06-07T14:18:42Z</time>
      </trkpt>
      <trkpt lat="44.22788" lon="5.99374">
        <ele>1029.23</ele>
        <time>2013-06-07T14:18:49Z</time>
      </trkpt>
      <trkpt lat="44.22784" lon="5.99357">
        <ele>1029.71</ele>
        <time>2013-06-07T14:19:01Z</time>
      </trkpt>
      <trkpt lat="44.22779" lon="5.99343">
        <ele>1031.63</ele>
        <time>2013-06-07T14:19:13Z</time>
      </trkpt>
      <trkpt lat="44.22773" lon="5.99325">
        <ele>1033.07</ele>
        <time>2013-06-07T14:19:27Z</time>
      </trkpt>
      <trkpt lat="44.22773" lon="5.99324">
        <ele>1033.07</ele>
        <time>2013-06-07T14:19:28Z</time>
      </trkpt>
      <trkpt lat="44.2277" lon="5.99308">
        <ele>1035</ele>
        <time>2013-06-07T14:19:40Z</time>
      </trkpt>
      <trkpt lat="44.22769" lon="5.99305">
        <ele>1036.92</ele>
        <time>2013-06-07T14:19:42Z</time>
      </trkpt>
      <trkpt lat="44.22766" lon="5.99284">
        <ele>1038.84</ele>
        <time>2013-06-07T14:19:57Z</time>
      </trkpt>
      <trkpt lat="44.22767" lon="5.99278">
        <ele>1040.76</ele>
        <time>2013-06-07T14:20:03Z</time>
      </trkpt>
      <trkpt lat="44.22766" lon="5.99259">
        <ele>1042.69</ele>
        <time>2013-06-07T14:20:18Z</time>
      </trkpt>
      <trkpt lat="44.22763" lon="5.99246">
        <ele>1044.13</ele>
        <time>2013-06-07T14:20:26Z</time>
      </trkpt>
      <trkpt lat="44.22759" lon="5.99223">
        <ele>1042.69</ele>
        <time>2013-06-07T14:20:42Z</time>
      </trkpt>
      <trkpt lat="44.22761" lon="5.99211">
        <ele>1046.05</ele>
        <time>2013-06-07T14:20:51Z</time>
      </trkpt>
      <trkpt lat="44.22762" lon="5.99207">
        <ele>1044.61</ele>
        <time>2013-06-07T14:20:54Z</time>
      </trkpt>
      <trkpt lat="44.22765" lon="5.99193">
        <ele>1048.45</ele>
        <time>2013-06-07T14:21:07Z</time>
      </trkpt>
      <trkpt lat="44.22771" lon="5.99182">
        <ele>1049.42</ele>
        <time>2013-06-07T14:21:19Z</time>
      </trkpt>
      <trkpt lat="44.22778" lon="5.99195">
        <ele>1052.3</ele>
        <time>2013-06-07T14:21:33Z</time>
      </trkpt>
      <trkpt lat="44.22782" lon="5.99203">
        <ele>1051.34</ele>
        <time>2013-06-07T14:21:47Z</time>
      </trkpt>
      <trkpt lat="44.2278" lon="5.99206">
        <ele>1050.86</ele>
        <time>2013-06-07T14:22:01Z</time>
      </trkpt>
      <trkpt lat="44.2278" lon="5.99205">
        <ele>1051.82</ele>
        <time>2013-06-07T14:22:24Z</time>
      </trkpt>
      <trkpt lat="44.22779" lon="5.99207">
        <ele>1051.34</ele>
        <time>2013-06-07T14:22:48Z</time>
      </trkpt>
      <trkpt lat="44.22778" lon="5.99207">
        <ele>1052.3</ele>
        <time>2013-06-07T14:23:12Z</time>
      </trkpt>
      <trkpt lat="44.22777" lon="5.99211">
        <ele>1051.82</ele>
        <time>2013-06-07T14:23:37Z</time>
      </trkpt>
      <trkpt lat="44.2278" lon="5.99206">
        <ele>1052.3</ele>
        <time>2013-06-07T14:24:03Z</time>
      </trkpt>
      <trkpt lat="44.22783" lon="5.99205">
        <ele>1052.3</ele>
        <time>2013-06-07T14:24:30Z</time>
      </trkpt>
      <trkpt lat="44.22782" lon="5.99205">
        <ele>1052.3</ele>
        <time>2013-06-07T14:24:51Z</time>
      </trkpt>
      <trkpt lat="44.22779" lon="5.99206">
        <ele>1052.3</ele>
        <time>2013-06-07T14:25:20Z</time>
      </trkpt>
      <trkpt lat="44.22782" lon="5.99203">
        <ele>1052.3</ele>
        <time>2013-06-07T14:25:47Z</time>
      </trkpt>
      <trkpt lat="44.22789" lon="5.99211">
        <ele>1052.78</ele>
        <time>2013-06-07T14:26:04Z</time>
      </trkpt>
      <trkpt lat="44.22794" lon="5.99216">
        <ele>1055.67</ele>
        <time>2013-06-07T14:26:13Z</time>
      </trkpt>
      <trkpt lat="44.228" lon="5.99225">
        <ele>1057.11</ele>
        <time>2013-06-07T14:26:26Z</time>
      </trkpt>
      <trkpt lat="44.22806" lon="5.99233">
        <ele>1059.03</ele>
        <time>2013-06-07T14:26:39Z</time>
      </trkpt>
      <trkpt lat="44.22817" lon="5.99241">
        <ele>1060.47</ele>
        <time>2013-06-07T14:26:57Z</time>
      </trkpt>
      <trkpt lat="44.22815" lon="5.99226">
        <ele>1061.91</ele>
        <time>2013-06-07T14:27:11Z</time>
      </trkpt>
      <trkpt lat="44.22813" lon="5.99207">
        <ele>1063.84</ele>
        <time>2013-06-07T14:27:25Z</time>
      </trkpt>
      <trkpt lat="44.22814" lon="5.99194">
        <ele>1064.8</ele>
        <time>2013-06-07T14:27:34Z</time>
      </trkpt>
      <trkpt lat="44.22813" lon="5.99175">
        <ele>1065.28</ele>
        <time>2013-06-07T14:27:48Z</time>
      </trkpt>
      <trkpt lat="44.22815" lon="5.9916">
        <ele>1067.68</ele>
        <time>2013-06-07T14:28:02Z</time>
      </trkpt>
      <trkpt lat="44.22818" lon="5.99143">
        <ele>1070.57</ele>
        <time>2013-06-07T14:28:17Z</time>
      </trkpt>
      <trkpt lat="44.22822" lon="5.99124">
        <ele>1072.49</ele>
        <time>2013-06-07T14:28:34Z</time>
      </trkpt>
      <trkpt lat="44.22824" lon="5.9911">
        <ele>1073.45</ele>
        <time>2013-06-07T14:28:44Z</time>
      </trkpt>
      <trkpt lat="44.22825" lon="5.99091">
        <ele>1073.93</ele>
        <time>2013-06-07T14:29:00Z</time>
      </trkpt>
      <trkpt lat="44.22826" lon="5.99075">
        <ele>1077.29</ele>
        <time>2013-06-07T14:29:16Z</time>
      </trkpt>
      <trkpt lat="44.22827" lon="5.99073">
        <ele>1077.29</ele>
        <time>2013-06-07T14:29:32Z</time>
      </trkpt>
      <trkpt lat="44.22827" lon="5.99072">
        <ele>1076.81</ele>
        <time>2013-06-07T14:29:52Z</time>
      </trkpt>
      <trkpt lat="44.22828" lon="5.9907">
        <ele>1077.29</ele>
        <time>2013-06-07T14:29:57Z</time>
      </trkpt>
      <trkpt lat="44.2283" lon="5.99045">
        <ele>1079.22</ele>
        <time>2013-06-07T14:30:14Z</time>
      </trkpt>
      <trkpt lat="44.22833" lon="5.99024">
        <ele>1080.18</ele>
        <time>2013-06-07T14:30:28Z</time>
      </trkpt>
      <trkpt lat="44.22836" lon="5.9902">
        <ele>1081.62</ele>
        <time>2013-06-07T14:30:31Z</time>
      </trkpt>
      <trkpt lat="44.22841" lon="5.99015">
        <ele>1081.14</ele>
        <time>2013-06-07T14:30:38Z</time>
      </trkpt>
      <trkpt lat="44.22844" lon="5.99006">
        <ele>1083.54</ele>
        <time>2013-06-07T14:30:45Z</time>
      </trkpt>
      <trkpt lat="44.22845" lon="5.98999">
        <ele>1084.02</ele>
        <time>2013-06-07T14:30:50Z</time>
      </trkpt>
      <trkpt lat="44.22847" lon="5.98985">
        <ele>1084.02</ele>
        <time>2013-06-07T14:30:59Z</time>
      </trkpt>
      <trkpt lat="44.22846" lon="5.98981">
        <ele>1085.47</ele>
        <time>2013-06-07T14:31:01Z</time>
      </trkpt>
      <trkpt lat="44.22846" lon="5.98961">
        <ele>1086.91</ele>
        <time>2013-06-07T14:31:14Z</time>
      </trkpt>
      <trkpt lat="44.22846" lon="5.98942">
        <ele>1087.87</ele>
        <time>2013-06-07T14:31:27Z</time>
      </trkpt>
      <trkpt lat="44.22848" lon="5.98929">
        <ele>1089.79</ele>
        <time>2013-06-07T14:31:38Z</time>
      </trkpt>
      <trkpt lat="44.22852" lon="5.9891">
        <ele>1093.16</ele>
        <time>2013-06-07T14:31:52Z</time>
      </trkpt>
      <trkpt lat="44.22855" lon="5.98898">
        <ele>1094.12</ele>
        <time>2013-06-07T14:32:01Z</time>
      </trkpt>
      <trkpt lat="44.22861" lon="5.98888">
        <ele>1095.56</ele>
        <time>2013-06-07T14:32:11Z</time>
      </trkpt>
      <trkpt lat="44.2287" lon="5.98871">
        <ele>1097</ele>
        <time>2013-06-07T14:32:30Z</time>
      </trkpt>
      <trkpt lat="44.2287" lon="5.98878">
        <ele>1097</ele>
        <time>2013-06-07T14:32:49Z</time>
      </trkpt>
      <trkpt lat="44.22869" lon="5.98877">
        <ele>1097</ele>
        <time>2013-06-07T14:33:04Z</time>
      </trkpt>
      <trkpt lat="44.22866" lon="5.9888">
        <ele>1097.48</ele>
        <time>2013-06-07T14:33:20Z</time>
      </trkpt>
      <trkpt lat="44.22868" lon="5.98878">
        <ele>1097.48</ele>
        <time>2013-06-07T14:33:40Z</time>
      </trkpt>
      <trkpt lat="44.22873" lon="5.98875">
        <ele>1097.48</ele>
        <time>2013-06-07T14:33:59Z</time>
      </trkpt>
      <trkpt lat="44.22868" lon="5.98879">
        <ele>1097.48</ele>
        <time>2013-06-07T14:34:14Z</time>
      </trkpt>
      <trkpt lat="44.22869" lon="5.98871">
        <ele>1098.44</ele>
        <time>2013-06-07T14:34:28Z</time>
      </trkpt>
      <trkpt lat="44.2287" lon="5.98884">
        <ele>1097</ele>
        <time>2013-06-07T14:34:44Z</time>
      </trkpt>
      <trkpt lat="44.22873" lon="5.98886">
        <ele>1097.96</ele>
        <time>2013-06-07T14:34:58Z</time>
      </trkpt>
      <trkpt lat="44.22868" lon="5.98885">
        <ele>1097.96</ele>
        <time>2013-06-07T14:35:23Z</time>
      </trkpt>
      <trkpt lat="44.22866" lon="5.98888">
        <ele>1097.96</ele>
        <time>2013-06-07T14:35:44Z</time>
      </trkpt>
      <trkpt lat="44.22867" lon="5.98887">
        <ele>1097.96</ele>
        <time>2013-06-07T14:36:08Z</time>
      </trkpt>
      <trkpt lat="44.22861" lon="5.98885">
        <ele>1098.44</ele>
        <time>2013-06-07T14:36:28Z</time>
      </trkpt>
      <trkpt lat="44.22867" lon="5.98887">
        <ele>1098.44</ele>
        <time>2013-06-07T14:36:49Z</time>
      </trkpt>
      <trkpt lat="44.22867" lon="5.98888">
        <ele>1097.96</ele>
        <time>2013-06-07T14:37:17Z</time>
      </trkpt>
      <trkpt lat="44.22866" lon="5.98889">
        <ele>1098.44</ele>
        <time>2013-06-07T14:37:42Z</time>
      </trkpt>
      <trkpt lat="44.2286" lon="5.98884">
        <ele>1098.44</ele>
        <time>2013-06-07T14:38:06Z</time>
      </trkpt>
      <trkpt lat="44.22871" lon="5.98883">
        <ele>1098.92</ele>
        <time>2013-06-07T14:38:30Z</time>
      </trkpt>
      <trkpt lat="44.22868" lon="5.98874">
        <ele>1098.92</ele>
        <time>2013-06-07T14:38:58Z</time>
      </trkpt>
      <trkpt lat="44.22869" lon="5.98875">
        <ele>1098.92</ele>
        <time>2013-06-07T14:39:24Z</time>
      </trkpt>
      <trkpt lat="44.22866" lon="5.98884">
        <ele>1099.4</ele>
        <time>2013-06-07T14:39:55Z</time>
      </trkpt>
      <trkpt lat="44.22869" lon="5.9888">
        <ele>1099.4</ele>
        <time>2013-06-07T14:40:28Z</time>
      </trkpt>
      <trkpt lat="44.22868" lon="5.98882">
        <ele>1099.89</ele>
        <time>2013-06-07T14:41:06Z</time>
      </trkpt>
      <trkpt lat="44.22868" lon="5.98887">
        <ele>1099.89</ele>
        <time>2013-06-07T14:41:32Z</time>
      </trkpt>
      <trkpt lat="44.22869" lon="5.98889">
        <ele>1100.37</ele>
        <time>2013-06-07T14:41:55Z</time>
      </trkpt>
      <trkpt lat="44.22866" lon="5.98887">
        <ele>1100.85</ele>
        <time>2013-06-07T14:42:27Z</time>
      </trkpt>
      <trkpt lat="44.22867" lon="5.98889">
        <ele>1100.85</ele>
        <time>2013-06-07T14:42:55Z</time>
      </trkpt>
      <trkpt lat="44.22868" lon="5.98895">
        <ele>1100.85</ele>
        <time>2013-06-07T14:43:23Z</time>
      </trkpt>
      <trkpt lat="44.22868" lon="5.98888">
        <ele>1100.85</ele>
        <time>2013-06-07T14:43:43Z</time>
      </trkpt>
      <trkpt lat="44.2287" lon="5.98884">
        <ele>1100.85</ele>
        <time>2013-06-07T14:44:09Z</time>
      </trkpt>
      <trkpt lat="44.22868" lon="5.98887">
        <ele>1100.85</ele>
        <time>2013-06-07T14:44:35Z</time>
      </trkpt>
      <trkpt lat="44.22863" lon="5.98879">
        <ele>1100.85</ele>
        <time>2013-06-07T14:45:04Z</time>
      </trkpt>
      <trkpt lat="44.22863" lon="5.9888">
        <ele>1101.33</ele>
        <time>2013-06-07T14:45:29Z</time>
      </trkpt>
      <trkpt lat="44.22865" lon="5.9888">
        <ele>1101.33</ele>
        <time>2013-06-07T14:45:59Z</time>
      </trkpt>
      <trkpt lat="44.22868" lon="5.98883">
        <ele>1101.33</ele>
        <time>2013-06-07T14:46:22Z</time>
      </trkpt>
      <trkpt lat="44.22866" lon="5.9888">
        <ele>1101.33</ele>
        <time>2013-06-07T14:46:42Z</time>
      </trkpt>
      <trkpt lat="44.22864" lon="5.98879">
        <ele>1101.81</ele>
        <time>2013-06-07T14:47:05Z</time>
      </trkpt>
      <trkpt lat="44.22865" lon="5.98884">
        <ele>1101.81</ele>
        <time>2013-06-07T14:47:28Z</time>
      </trkpt>
      <trkpt lat="44.22867" lon="5.98889">
        <ele>1101.81</ele>
        <time>2013-06-07T14:47:50Z</time>
      </trkpt>
      <trkpt lat="44.22869" lon="5.98888">
        <ele>1101.81</ele>
        <time>2013-06-07T14:48:22Z</time>
      </trkpt>
      <trkpt lat="44.22869" lon="5.9888">
        <ele>1102.29</ele>
        <time>2013-06-07T14:48:37Z</time>
      </trkpt>
      <trkpt lat="44.22871" lon="5.98876">
        <ele>1102.29</ele>
        <time>2013-06-07T14:49:01Z</time>
      </trkpt>
      <trkpt lat="44.22869" lon="5.98869">
        <ele>1102.29</ele>
        <time>2013-06-07T14:49:25Z</time>
      </trkpt>
      <trkpt lat="44.22869" lon="5.98874">
        <ele>1101.81</ele>
        <time>2013-06-07T14:49:49Z</time>
      </trkpt>
      <trkpt lat="44.22869" lon="5.98874">
        <ele>1102.29</ele>
        <time>2013-06-07T14:50:20Z</time>
      </trkpt>
      <trkpt lat="44.22871" lon="5.98872">
        <ele>1102.29</ele>
        <time>2013-06-07T14:50:47Z</time>
      </trkpt>
      <trkpt lat="44.22867" lon="5.98871">
        <ele>1102.29</ele>
        <time>2013-06-07T14:51:10Z</time>
      </trkpt>
      <trkpt lat="44.22869" lon="5.98874">
        <ele>1102.77</ele>
        <time>2013-06-07T14:51:35Z</time>
      </trkpt>
      <trkpt lat="44.2287" lon="5.98874">
        <ele>1102.77</ele>
        <time>2013-06-07T14:51:56Z</time>
      </trkpt>
      <trkpt lat="44.22869" lon="5.98873">
        <ele>1103.25</ele>
        <time>2013-06-07T14:52:12Z</time>
      </trkpt>
      <trkpt lat="44.22871" lon="5.98877">
        <ele>1103.25</ele>
        <time>2013-06-07T14:52:34Z</time>
      </trkpt>
      <trkpt lat="44.2287" lon="5.98874">
        <ele>1103.25</ele>
        <time>2013-06-07T14:52:57Z</time>
      </trkpt>
      <trkpt lat="44.22869" lon="5.98879">
        <ele>1103.73</ele>
        <time>2013-06-07T14:53:22Z</time>
      </trkpt>
      <trkpt lat="44.22873" lon="5.98876">
        <ele>1103.73</ele>
        <time>2013-06-07T14:53:42Z</time>
      </trkpt>
      <trkpt lat="44.2287" lon="5.9888">
        <ele>1103.73</ele>
        <time>2013-06-07T14:54:02Z</time>
      </trkpt>
      <trkpt lat="44.2287" lon="5.98873">
        <ele>1104.21</ele>
        <time>2013-06-07T14:54:30Z</time>
      </trkpt>
      <trkpt lat="44.2287" lon="5.98879">
        <ele>1103.73</ele>
        <time>2013-06-07T14:55:00Z</time>
      </trkpt>
      <trkpt lat="44.2287" lon="5.9888">
        <ele>1104.21</ele>
        <time>2013-06-07T14:55:22Z</time>
      </trkpt>
      <trkpt lat="44.22869" lon="5.9888">
        <ele>1104.69</ele>
        <time>2013-06-07T14:55:24Z</time>
      </trkpt>
      <trkpt lat="44.22865" lon="5.98876">
        <ele>1103.25</ele>
        <time>2013-06-07T14:55:38Z</time>
      </trkpt>
      <trkpt lat="44.22865" lon="5.98876">
        <ele>1103.25</ele>
        <time>2013-06-07T14:55:59Z</time>
      </trkpt>
      <trkpt lat="44.22867" lon="5.98871">
        <ele>1103.73</ele>
        <time>2013-06-07T14:56:12Z</time>
      </trkpt>
      <trkpt lat="44.22868" lon="5.98864">
        <ele>1104.69</ele>
        <time>2013-06-07T14:56:24Z</time>
      </trkpt>
      <trkpt lat="44.22866" lon="5.98854">
        <ele>1105.65</ele>
        <time>2013-06-07T14:56:38Z</time>
      </trkpt>
      <trkpt lat="44.22864" lon="5.98843">
        <ele>1103.73</ele>
        <time>2013-06-07T14:56:48Z</time>
      </trkpt>
      <trkpt lat="44.22858" lon="5.98834">
        <ele>1103.25</ele>
        <time>2013-06-07T14:56:59Z</time>
      </trkpt>
      <trkpt lat="44.22855" lon="5.98819">
        <ele>1105.65</ele>
        <time>2013-06-07T14:57:12Z</time>
      </trkpt>
      <trkpt lat="44.22853" lon="5.98802">
        <ele>1104.21</ele>
        <time>2013-06-07T14:57:25Z</time>
      </trkpt>
      <trkpt lat="44.22851" lon="5.9879">
        <ele>1104.21</ele>
        <time>2013-06-07T14:57:36Z</time>
      </trkpt>
      <trkpt lat="44.22848" lon="5.98779">
        <ele>1103.73</ele>
        <time>2013-06-07T14:57:45Z</time>
      </trkpt>
      <trkpt lat="44.22846" lon="5.98766">
        <ele>1105.17</ele>
        <time>2013-06-07T14:57:55Z</time>
      </trkpt>
      <trkpt lat="44.2284" lon="5.98754">
        <ele>1105.65</ele>
        <time>2013-06-07T14:58:08Z</time>
      </trkpt>
      <trkpt lat="44.2284" lon="5.98753">
        <ele>1105.65</ele>
        <time>2013-06-07T14:58:09Z</time>
      </trkpt>
      <trkpt lat="44.22834" lon="5.98738">
        <ele>1106.13</ele>
        <time>2013-06-07T14:58:21Z</time>
      </trkpt>
      <trkpt lat="44.22827" lon="5.98723">
        <ele>1106.61</ele>
        <time>2013-06-07T14:58:34Z</time>
      </trkpt>
      <trkpt lat="44.22822" lon="5.98712">
        <ele>1106.13</ele>
        <time>2013-06-07T14:58:45Z</time>
      </trkpt>
      <trkpt lat="44.22821" lon="5.9871">
        <ele>1106.61</ele>
        <time>2013-06-07T14:58:47Z</time>
      </trkpt>
      <trkpt lat="44.22814" lon="5.98697">
        <ele>1106.13</ele>
        <time>2013-06-07T14:58:59Z</time>
      </trkpt>
      <trkpt lat="44.22808" lon="5.98696">
        <ele>1105.65</ele>
        <time>2013-06-07T14:59:09Z</time>
      </trkpt>
      <trkpt lat="44.22809" lon="5.98696">
        <ele>1107.1</ele>
        <time>2013-06-07T14:59:30Z</time>
      </trkpt>
      <trkpt lat="44.22807" lon="5.98689">
        <ele>1107.1</ele>
        <time>2013-06-07T14:59:45Z</time>
      </trkpt>
      <trkpt lat="44.22806" lon="5.98685">
        <ele>1106.61</ele>
        <time>2013-06-07T14:59:48Z</time>
      </trkpt>
      <trkpt lat="44.22804" lon="5.9868">
        <ele>1108.06</ele>
        <time>2013-06-07T14:59:52Z</time>
      </trkpt>
      <trkpt lat="44.22797" lon="5.98668">
        <ele>1107.58</ele>
        <time>2013-06-07T15:00:02Z</time>
      </trkpt>
      <trkpt lat="44.22791" lon="5.98655">
        <ele>1106.13</ele>
        <time>2013-06-07T15:00:11Z</time>
      </trkpt>
      <trkpt lat="44.22788" lon="5.98644">
        <ele>1107.1</ele>
        <time>2013-06-07T15:00:20Z</time>
      </trkpt>
      <trkpt lat="44.22784" lon="5.98642">
        <ele>1107.1</ele>
        <time>2013-06-07T15:00:24Z</time>
      </trkpt>
      <trkpt lat="44.22778" lon="5.98631">
        <ele>1108.54</ele>
        <time>2013-06-07T15:00:34Z</time>
      </trkpt>
      <trkpt lat="44.22777" lon="5.98627">
        <ele>1107.58</ele>
        <time>2013-06-07T15:00:37Z</time>
      </trkpt>
      <trkpt lat="44.22776" lon="5.98614">
        <ele>1109.02</ele>
        <time>2013-06-07T15:00:48Z</time>
      </trkpt>
      <trkpt lat="44.22775" lon="5.98612">
        <ele>1109.5</ele>
        <time>2013-06-07T15:00:49Z</time>
      </trkpt>
      <trkpt lat="44.22772" lon="5.98599">
        <ele>1109.98</ele>
        <time>2013-06-07T15:01:00Z</time>
      </trkpt>
      <trkpt lat="44.22771" lon="5.98598">
        <ele>1110.94</ele>
        <time>2013-06-07T15:01:01Z</time>
      </trkpt>
      <trkpt lat="44.22766" lon="5.98589">
        <ele>1111.42</ele>
        <time>2013-06-07T15:01:08Z</time>
      </trkpt>
      <trkpt lat="44.22765" lon="5.98584">
        <ele>1111.9</ele>
        <time>2013-06-07T15:01:12Z</time>
      </trkpt>
      <trkpt lat="44.22762" lon="5.98578">
        <ele>1112.38</ele>
        <time>2013-06-07T15:01:25Z</time>
      </trkpt>
      <trkpt lat="44.22762" lon="5.98579">
        <ele>1111.9</ele>
        <time>2013-06-07T15:01:39Z</time>
      </trkpt>
      <trkpt lat="44.22761" lon="5.98572">
        <ele>1113.34</ele>
        <time>2013-06-07T15:01:49Z</time>
      </trkpt>
      <trkpt lat="44.22761" lon="5.98568">
        <ele>1112.86</ele>
        <time>2013-06-07T15:02:03Z</time>
      </trkpt>
      <trkpt lat="44.22762" lon="5.98571">
        <ele>1112.38</ele>
        <time>2013-06-07T15:02:12Z</time>
      </trkpt>
      <trkpt lat="44.2276" lon="5.98567">
        <ele>1113.34</ele>
        <time>2013-06-07T15:02:22Z</time>
      </trkpt>
      <trkpt lat="44.2276" lon="5.98563">
        <ele>1114.31</ele>
        <time>2013-06-07T15:02:37Z</time>
      </trkpt>
      <trkpt lat="44.22755" lon="5.98554">
        <ele>1113.34</ele>
        <time>2013-06-07T15:02:45Z</time>
      </trkpt>
      <trkpt lat="44.22751" lon="5.98541">
        <ele>1115.27</ele>
        <time>2013-06-07T15:02:55Z</time>
      </trkpt>
      <trkpt lat="44.22748" lon="5.98532">
        <ele>1117.19</ele>
        <time>2013-06-07T15:03:01Z</time>
      </trkpt>
      <trkpt lat="44.22746" lon="5.98525">
        <ele>1117.67</ele>
        <time>2013-06-07T15:03:11Z</time>
      </trkpt>
      <trkpt lat="44.22747" lon="5.98524">
        <ele>1118.15</ele>
        <time>2013-06-07T15:03:24Z</time>
      </trkpt>
      <trkpt lat="44.22746" lon="5.98517">
        <ele>1119.11</ele>
        <time>2013-06-07T15:03:39Z</time>
      </trkpt>
      <trkpt lat="44.22746" lon="5.98515">
        <ele>1120.07</ele>
        <time>2013-06-07T15:03:50Z</time>
      </trkpt>
      <trkpt lat="44.22747" lon="5.98513">
        <ele>1119.59</ele>
        <time>2013-06-07T15:03:52Z</time>
      </trkpt>
      <trkpt lat="44.22746" lon="5.98496">
        <ele>1120.07</ele>
        <time>2013-06-07T15:04:04Z</time>
      </trkpt>
      <trkpt lat="44.22745" lon="5.98479">
        <ele>1122.96</ele>
        <time>2013-06-07T15:04:15Z</time>
      </trkpt>
      <trkpt lat="44.22741" lon="5.98473">
        <ele>1122</ele>
        <time>2013-06-07T15:04:21Z</time>
      </trkpt>
      <trkpt lat="44.22735" lon="5.98462">
        <ele>1122.48</ele>
        <time>2013-06-07T15:04:29Z</time>
      </trkpt>
      <trkpt lat="44.22731" lon="5.98455">
        <ele>1121.03</ele>
        <time>2013-06-07T15:04:35Z</time>
      </trkpt>
      <trkpt lat="44.22724" lon="5.98441">
        <ele>1122.48</ele>
        <time>2013-06-07T15:04:45Z</time>
      </trkpt>
      <trkpt lat="44.22718" lon="5.98424">
        <ele>1120.55</ele>
        <time>2013-06-07T15:04:55Z</time>
      </trkpt>
      <trkpt lat="44.22715" lon="5.98419">
        <ele>1120.07</ele>
        <time>2013-06-07T15:05:00Z</time>
      </trkpt>
      <trkpt lat="44.22706" lon="5.98408">
        <ele>1118.15</ele>
        <time>2013-06-07T15:05:10Z</time>
      </trkpt>
      <trkpt lat="44.22704" lon="5.98401">
        <ele>1119.11</ele>
        <time>2013-06-07T15:05:14Z</time>
      </trkpt>
      <trkpt lat="44.22702" lon="5.98388">
        <ele>1118.15</ele>
        <time>2013-06-07T15:05:22Z</time>
      </trkpt>
      <trkpt lat="44.22696" lon="5.9838">
        <ele>1117.67</ele>
        <time>2013-06-07T15:05:28Z</time>
      </trkpt>
      <trkpt lat="44.22689" lon="5.98371">
        <ele>1118.15</ele>
        <time>2013-06-07T15:05:37Z</time>
      </trkpt>
      <trkpt lat="44.22688" lon="5.98368">
        <ele>1118.15</ele>
        <time>2013-06-07T15:05:39Z</time>
      </trkpt>
      <trkpt lat="44.22685" lon="5.9836">
        <ele>1116.71</ele>
        <time>2013-06-07T15:05:45Z</time>
      </trkpt>
      <trkpt lat="44.22681" lon="5.98348">
        <ele>1118.15</ele>
        <time>2013-06-07T15:05:55Z</time>
      </trkpt>
      <trkpt lat="44.22678" lon="5.98345">
        <ele>1120.07</ele>
        <time>2013-06-07T15:06:00Z</time>
      </trkpt>
      <trkpt lat="44.22671" lon="5.98336">
        <ele>1118.15</ele>
        <time>2013-06-07T15:06:11Z</time>
      </trkpt>
      <trkpt lat="44.22669" lon="5.98333">
        <ele>1117.67</ele>
        <time>2013-06-07T15:06:15Z</time>
      </trkpt>
      <trkpt lat="44.22659" lon="5.98321">
        <ele>1119.11</ele>
        <time>2013-06-07T15:06:28Z</time>
      </trkpt>
      <trkpt lat="44.2265" lon="5.98314">
        <ele>1117.19</ele>
        <time>2013-06-07T15:06:37Z</time>
      </trkpt>
      <trkpt lat="44.22645" lon="5.98305">
        <ele>1117.67</ele>
        <time>2013-06-07T15:06:45Z</time>
      </trkpt>
      <trkpt lat="44.22642" lon="5.98299">
        <ele>1117.19</ele>
        <time>2013-06-07T15:06:55Z</time>
      </trkpt>
      <trkpt lat="44.2264" lon="5.98297">
        <ele>1116.71</ele>
        <time>2013-06-07T15:06:59Z</time>
      </trkpt>
      <trkpt lat="44.22632" lon="5.98287">
        <ele>1115.27</ele>
        <time>2013-06-07T15:07:07Z</time>
      </trkpt>
      <trkpt lat="44.22625" lon="5.98278">
        <ele>1112.38</ele>
        <time>2013-06-07T15:07:18Z</time>
      </trkpt>
      <trkpt lat="44.22627" lon="5.98274">
        <ele>1112.38</ele>
        <time>2013-06-07T15:07:29Z</time>
      </trkpt>
      <trkpt lat="44.22623" lon="5.98273">
        <ele>1111.9</ele>
        <time>2013-06-07T15:07:41Z</time>
      </trkpt>
      <trkpt lat="44.22616" lon="5.98262">
        <ele>1110.94</ele>
        <time>2013-06-07T15:07:52Z</time>
      </trkpt>
      <trkpt lat="44.22614" lon="5.98258">
        <ele>1109.98</ele>
        <time>2013-06-07T15:07:58Z</time>
      </trkpt>
      <trkpt lat="44.2261" lon="5.98255">
        <ele>1109.5</ele>
        <time>2013-06-07T15:08:02Z</time>
      </trkpt>
      <trkpt lat="44.22605" lon="5.98249">
        <ele>1108.06</ele>
        <time>2013-06-07T15:08:11Z</time>
      </trkpt>
      <trkpt lat="44.22601" lon="5.98247">
        <ele>1107.1</ele>
        <time>2013-06-07T15:08:22Z</time>
      </trkpt>
      <trkpt lat="44.22594" lon="5.98237">
        <ele>1104.69</ele>
        <time>2013-06-07T15:08:34Z</time>
      </trkpt>
      <trkpt lat="44.22589" lon="5.98229">
        <ele>1104.21</ele>
        <time>2013-06-07T15:08:43Z</time>
      </trkpt>
      <trkpt lat="44.22582" lon="5.98224">
        <ele>1102.77</ele>
        <time>2013-06-07T15:08:54Z</time>
      </trkpt>
      <trkpt lat="44.22577" lon="5.98216">
        <ele>1099.4</ele>
        <time>2013-06-07T15:09:00Z</time>
      </trkpt>
      <trkpt lat="44.22576" lon="5.98216">
        <ele>1099.89</ele>
        <time>2013-06-07T15:09:01Z</time>
      </trkpt>
      <trkpt lat="44.2257" lon="5.9821">
        <ele>1097.96</ele>
        <time>2013-06-07T15:09:10Z</time>
      </trkpt>
      <trkpt lat="44.22558" lon="5.98201">
        <ele>1095.56</ele>
        <time>2013-06-07T15:09:22Z</time>
      </trkpt>
      <trkpt lat="44.2255" lon="5.98194">
        <ele>1095.56</ele>
        <time>2013-06-07T15:09:31Z</time>
      </trkpt>
      <trkpt lat="44.22541" lon="5.98191">
        <ele>1093.16</ele>
        <time>2013-06-07T15:09:43Z</time>
      </trkpt>
      <trkpt lat="44.22533" lon="5.98188">
        <ele>1091.71</ele>
        <time>2013-06-07T15:09:53Z</time>
      </trkpt>
      <trkpt lat="44.22529" lon="5.98191">
        <ele>1089.79</ele>
        <time>2013-06-07T15:10:06Z</time>
      </trkpt>
      <trkpt lat="44.22527" lon="5.9819">
        <ele>1089.79</ele>
        <time>2013-06-07T15:10:08Z</time>
      </trkpt>
      <trkpt lat="44.22517" lon="5.98191">
        <ele>1087.39</ele>
        <time>2013-06-07T15:10:19Z</time>
      </trkpt>
      <trkpt lat="44.22516" lon="5.98192">
        <ele>1086.91</ele>
        <time>2013-06-07T15:10:20Z</time>
      </trkpt>
      <trkpt lat="44.22504" lon="5.98193">
        <ele>1084.99</ele>
        <time>2013-06-07T15:10:32Z</time>
      </trkpt>
      <trkpt lat="44.22499" lon="5.98191">
        <ele>1084.02</ele>
        <time>2013-06-07T15:10:41Z</time>
      </trkpt>
      <trkpt lat="44.22497" lon="5.98192">
        <ele>1084.99</ele>
        <time>2013-06-07T15:11:00Z</time>
      </trkpt>
      <trkpt lat="44.22496" lon="5.98189">
        <ele>1084.99</ele>
        <time>2013-06-07T15:11:25Z</time>
      </trkpt>
      <trkpt lat="44.22495" lon="5.98189">
        <ele>1084.99</ele>
        <time>2013-06-07T15:11:54Z</time>
      </trkpt>
      <trkpt lat="44.22496" lon="5.98189">
        <ele>1084.5</ele>
        <time>2013-06-07T15:12:13Z</time>
      </trkpt>
      <trkpt lat="44.22495" lon="5.98186">
        <ele>1086.91</ele>
        <time>2013-06-07T15:12:28Z</time>
      </trkpt>
      <trkpt lat="44.22493" lon="5.98174">
        <ele>1086.43</ele>
        <time>2013-06-07T15:12:41Z</time>
      </trkpt>
      <trkpt lat="44.22491" lon="5.98163">
        <ele>1089.31</ele>
        <time>2013-06-07T15:12:51Z</time>
      </trkpt>
      <trkpt lat="44.22488" lon="5.98155">
        <ele>1088.35</ele>
        <time>2013-06-07T15:13:01Z</time>
      </trkpt>
      <trkpt lat="44.22485" lon="5.98144">
        <ele>1091.23</ele>
        <time>2013-06-07T15:13:11Z</time>
      </trkpt>
      <trkpt lat="44.22482" lon="5.98133">
        <ele>1091.23</ele>
        <time>2013-06-07T15:13:23Z</time>
      </trkpt>
      <trkpt lat="44.22482" lon="5.98133">
        <ele>1092.2</ele>
        <time>2013-06-07T15:13:24Z</time>
      </trkpt>
      <trkpt lat="44.22479" lon="5.98123">
        <ele>1093.64</ele>
        <time>2013-06-07T15:13:36Z</time>
      </trkpt>
      <trkpt lat="44.22476" lon="5.98118">
        <ele>1093.64</ele>
        <time>2013-06-07T15:13:43Z</time>
      </trkpt>
      <trkpt lat="44.22471" lon="5.98112">
        <ele>1094.6</ele>
        <time>2013-06-07T15:13:51Z</time>
      </trkpt>
      <trkpt lat="44.22469" lon="5.98107">
        <ele>1097.48</ele>
        <time>2013-06-07T15:13:55Z</time>
      </trkpt>
      <trkpt lat="44.22466" lon="5.98096">
        <ele>1097</ele>
        <time>2013-06-07T15:14:06Z</time>
      </trkpt>
      <trkpt lat="44.22462" lon="5.98091">
        <ele>1096.52</ele>
        <time>2013-06-07T15:14:13Z</time>
      </trkpt>
      <trkpt lat="44.22459" lon="5.98087">
        <ele>1097.96</ele>
        <time>2013-06-07T15:14:21Z</time>
      </trkpt>
      <trkpt lat="44.22458" lon="5.98084">
        <ele>1099.89</ele>
        <time>2013-06-07T15:14:23Z</time>
      </trkpt>
      <trkpt lat="44.22457" lon="5.98069">
        <ele>1101.33</ele>
        <time>2013-06-07T15:14:34Z</time>
      </trkpt>
      <trkpt lat="44.22453" lon="5.98056">
        <ele>1102.29</ele>
        <time>2013-06-07T15:14:46Z</time>
      </trkpt>
      <trkpt lat="44.2245" lon="5.98049">
        <ele>1102.77</ele>
        <time>2013-06-07T15:14:56Z</time>
      </trkpt>
      <trkpt lat="44.22449" lon="5.98044">
        <ele>1104.21</ele>
        <time>2013-06-07T15:15:03Z</time>
      </trkpt>
      <trkpt lat="44.22448" lon="5.98029">
        <ele>1106.13</ele>
        <time>2013-06-07T15:15:15Z</time>
      </trkpt>
      <trkpt lat="44.22448" lon="5.98013">
        <ele>1104.69</ele>
        <time>2013-06-07T15:15:27Z</time>
      </trkpt>
      <trkpt lat="44.22448" lon="5.98011">
        <ele>1108.06</ele>
        <time>2013-06-07T15:15:28Z</time>
      </trkpt>
      <trkpt lat="44.22447" lon="5.98008">
        <ele>1104.21</ele>
        <time>2013-06-07T15:15:30Z</time>
      </trkpt>
      <trkpt lat="44.22447" lon="5.98007">
        <ele>1107.1</ele>
        <time>2013-06-07T15:15:31Z</time>
      </trkpt>
      <trkpt lat="44.22447" lon="5.98003">
        <ele>1105.17</ele>
        <time>2013-06-07T15:15:34Z</time>
      </trkpt>
      <trkpt lat="44.22446" lon="5.97987">
        <ele>1106.13</ele>
        <time>2013-06-07T15:15:45Z</time>
      </trkpt>
      <trkpt lat="44.22442" lon="5.97973">
        <ele>1107.1</ele>
        <time>2013-06-07T15:15:56Z</time>
      </trkpt>
      <trkpt lat="44.22439" lon="5.97968">
        <ele>1105.17</ele>
        <time>2013-06-07T15:16:02Z</time>
      </trkpt>
      <trkpt lat="44.22433" lon="5.97959">
        <ele>1108.06</ele>
        <time>2013-06-07T15:16:12Z</time>
      </trkpt>
      <trkpt lat="44.22432" lon="5.97958">
        <ele>1106.61</ele>
        <time>2013-06-07T15:16:14Z</time>
      </trkpt>
      <trkpt lat="44.22431" lon="5.97954">
        <ele>1106.61</ele>
        <time>2013-06-07T15:16:17Z</time>
      </trkpt>
      <trkpt lat="44.2243" lon="5.97947">
        <ele>1108.06</ele>
        <time>2013-06-07T15:16:21Z</time>
      </trkpt>
      <trkpt lat="44.22429" lon="5.9793">
        <ele>1106.61</ele>
        <time>2013-06-07T15:16:33Z</time>
      </trkpt>
      <trkpt lat="44.22427" lon="5.97918">
        <ele>1108.06</ele>
        <time>2013-06-07T15:16:42Z</time>
      </trkpt>
      <trkpt lat="44.22428" lon="5.97914">
        <ele>1107.58</ele>
        <time>2013-06-07T15:16:45Z</time>
      </trkpt>
      <trkpt lat="44.2243" lon="5.97912">
        <ele>1107.58</ele>
        <time>2013-06-07T15:16:47Z</time>
      </trkpt>
      <trkpt lat="44.22432" lon="5.97911">
        <ele>1109.98</ele>
        <time>2013-06-07T15:16:50Z</time>
      </trkpt>
      <trkpt lat="44.22434" lon="5.97911">
        <ele>1109.02</ele>
        <time>2013-06-07T15:16:51Z</time>
      </trkpt>
      <trkpt lat="44.22446" lon="5.97905">
        <ele>1109.02</ele>
        <time>2013-06-07T15:17:02Z</time>
      </trkpt>
      <trkpt lat="44.22453" lon="5.97897">
        <ele>1109.98</ele>
        <time>2013-06-07T15:17:12Z</time>
      </trkpt>
      <trkpt lat="44.22461" lon="5.97892">
        <ele>1109.98</ele>
        <time>2013-06-07T15:17:25Z</time>
      </trkpt>
      <trkpt lat="44.22464" lon="5.97892">
        <ele>1110.46</ele>
        <time>2013-06-07T15:17:34Z</time>
      </trkpt>
      <trkpt lat="44.22464" lon="5.97893">
        <ele>1110.46</ele>
        <time>2013-06-07T15:17:53Z</time>
      </trkpt>
      <trkpt lat="44.22466" lon="5.97893">
        <ele>1109.98</ele>
        <time>2013-06-07T15:18:09Z</time>
      </trkpt>
      <trkpt lat="44.22471" lon="5.97889">
        <ele>1108.54</ele>
        <time>2013-06-07T15:18:20Z</time>
      </trkpt>
      <trkpt lat="44.2247" lon="5.9789">
        <ele>1109.98</ele>
        <time>2013-06-07T15:18:30Z</time>
      </trkpt>
      <trkpt lat="44.22469" lon="5.97893">
        <ele>1109.02</ele>
        <time>2013-06-07T15:18:41Z</time>
      </trkpt>
      <trkpt lat="44.22468" lon="5.97892">
        <ele>1109.5</ele>
        <time>2013-06-07T15:18:57Z</time>
      </trkpt>
      <trkpt lat="44.22469" lon="5.97892">
        <ele>1109.98</ele>
        <time>2013-06-07T15:19:21Z</time>
      </trkpt>
      <trkpt lat="44.22469" lon="5.97893">
        <ele>1109.5</ele>
        <time>2013-06-07T15:19:39Z</time>
      </trkpt>
      <trkpt lat="44.22467" lon="5.97896">
        <ele>1109.5</ele>
        <time>2013-06-07T15:19:58Z</time>
      </trkpt>
      <trkpt lat="44.22467" lon="5.97895">
        <ele>1109.5</ele>
        <time>2013-06-07T15:20:13Z</time>
      </trkpt>
      <trkpt lat="44.22466" lon="5.97894">
        <ele>1109.5</ele>
        <time>2013-06-07T15:20:38Z</time>
      </trkpt>
      <trkpt lat="44.22466" lon="5.97894">
        <ele>1109.5</ele>
        <time>2013-06-07T15:20:56Z</time>
      </trkpt>
      <trkpt lat="44.22467" lon="5.97894">
        <ele>1109.5</ele>
        <time>2013-06-07T15:21:17Z</time>
      </trkpt>
      <trkpt lat="44.22466" lon="5.97897">
        <ele>1109.5</ele>
        <time>2013-06-07T15:21:39Z</time>
      </trkpt>
      <trkpt lat="44.22467" lon="5.97897">
        <ele>1109.5</ele>
        <time>2013-06-07T15:21:58Z</time>
      </trkpt>
      <trkpt lat="44.22467" lon="5.97896">
        <ele>1109.02</ele>
        <time>2013-06-07T15:22:07Z</time>
      </trkpt>
      <trkpt lat="44.22466" lon="5.97896">
        <ele>1108.06</ele>
        <time>2013-06-07T15:22:16Z</time>
      </trkpt>
      <trkpt lat="44.22464" lon="5.97897">
        <ele>1108.54</ele>
        <time>2013-06-07T15:22:44Z</time>
      </trkpt>
      <trkpt lat="44.22466" lon="5.97896">
        <ele>1108.06</ele>
        <time>2013-06-07T15:23:16Z</time>
      </trkpt>
      <trkpt lat="44.22468" lon="5.97896">
        <ele>1108.06</ele>
        <time>2013-06-07T15:23:37Z</time>
      </trkpt>
      <trkpt lat="44.22466" lon="5.97894">
        <ele>1108.54</ele>
        <time>2013-06-07T15:23:58Z</time>
      </trkpt>
      <trkpt lat="44.22469" lon="5.97895">
        <ele>1108.54</ele>
        <time>2013-06-07T15:24:18Z</time>
      </trkpt>
      <trkpt lat="44.22466" lon="5.97896">
        <ele>1108.54</ele>
        <time>2013-06-07T15:24:30Z</time>
      </trkpt>
      <trkpt lat="44.22465" lon="5.97897">
        <ele>1108.06</ele>
        <time>2013-06-07T15:24:44Z</time>
      </trkpt>
      <trkpt lat="44.22465" lon="5.979">
        <ele>1108.06</ele>
        <time>2013-06-07T15:24:57Z</time>
      </trkpt>
      <trkpt lat="44.22464" lon="5.97897">
        <ele>1108.06</ele>
        <time>2013-06-07T15:25:17Z</time>
      </trkpt>
      <trkpt lat="44.22467" lon="5.97899">
        <ele>1107.1</ele>
        <time>2013-06-07T15:25:38Z</time>
      </trkpt>
      <trkpt lat="44.22466" lon="5.97897">
        <ele>1108.06</ele>
        <time>2013-06-07T15:25:51Z</time>
      </trkpt>
      <trkpt lat="44.22471" lon="5.97895">
        <ele>1107.1</ele>
        <time>2013-06-07T15:26:04Z</time>
      </trkpt>
      <trkpt lat="44.22475" lon="5.97891">
        <ele>1104.21</ele>
        <time>2013-06-07T15:26:17Z</time>
      </trkpt>
      <trkpt lat="44.22475" lon="5.97892">
        <ele>1104.69</ele>
        <time>2013-06-07T15:26:41Z</time>
      </trkpt>
      <trkpt lat="44.22474" lon="5.97892">
        <ele>1105.65</ele>
        <time>2013-06-07T15:26:59Z</time>
      </trkpt>
      <trkpt lat="44.22473" lon="5.97894">
        <ele>1105.65</ele>
        <time>2013-06-07T15:27:12Z</time>
      </trkpt>
      <trkpt lat="44.22469" lon="5.97895">
        <ele>1106.13</ele>
        <time>2013-06-07T15:27:24Z</time>
      </trkpt>
      <trkpt lat="44.22466" lon="5.979">
        <ele>1107.58</ele>
        <time>2013-06-07T15:27:35Z</time>
      </trkpt>
      <trkpt lat="44.22467" lon="5.97898">
        <ele>1107.1</ele>
        <time>2013-06-07T15:27:54Z</time>
      </trkpt>
      <trkpt lat="44.22464" lon="5.97896">
        <ele>1107.1</ele>
        <time>2013-06-07T15:28:22Z</time>
      </trkpt>
      <trkpt lat="44.22466" lon="5.97898">
        <ele>1107.1</ele>
        <time>2013-06-07T15:28:43Z</time>
      </trkpt>
      <trkpt lat="44.22467" lon="5.97897">
        <ele>1106.61</ele>
        <time>2013-06-07T15:29:02Z</time>
      </trkpt>
      <trkpt lat="44.22465" lon="5.97897">
        <ele>1106.61</ele>
        <time>2013-06-07T15:29:28Z</time>
      </trkpt>
      <trkpt lat="44.22464" lon="5.979">
        <ele>1106.61</ele>
        <time>2013-06-07T15:29:47Z</time>
      </trkpt>
      <trkpt lat="44.22461" lon="5.97902">
        <ele>1106.61</ele>
        <time>2013-06-07T15:29:57Z</time>
      </trkpt>
      <trkpt lat="44.22463" lon="5.97902">
        <ele>1097</ele>
        <time>2013-06-07T15:30:13Z</time>
      </trkpt>
      <trkpt lat="44.22463" lon="5.97902">
        <ele>1107.58</ele>
        <time>2013-06-07T15:30:14Z</time>
      </trkpt>
      <trkpt lat="44.22463" lon="5.97903">
        <ele>1105.65</ele>
        <time>2013-06-07T15:30:17Z</time>
      </trkpt>
      <trkpt lat="44.2246" lon="5.97895">
        <ele>1105.65</ele>
        <time>2013-06-07T15:30:33Z</time>
      </trkpt>
      <trkpt lat="44.22455" lon="5.97907">
        <ele>1109.5</ele>
        <time>2013-06-07T15:30:47Z</time>
      </trkpt>
      <trkpt lat="44.22459" lon="5.97904">
        <ele>1105.65</ele>
        <time>2013-06-07T15:30:48Z</time>
      </trkpt>
      <trkpt lat="44.22462" lon="5.97904">
        <ele>1106.13</ele>
        <time>2013-06-07T15:31:02Z</time>
      </trkpt>
      <trkpt lat="44.22465" lon="5.97907">
        <ele>1098.92</ele>
        <time>2013-06-07T15:31:15Z</time>
      </trkpt>
      <trkpt lat="44.22465" lon="5.97907">
        <ele>1108.06</ele>
        <time>2013-06-07T15:31:16Z</time>
      </trkpt>
      <trkpt lat="44.22463" lon="5.97909">
        <ele>1105.17</ele>
        <time>2013-06-07T15:31:21Z</time>
      </trkpt>
      <trkpt lat="44.2246" lon="5.97913">
        <ele>1105.17</ele>
        <time>2013-06-07T15:31:36Z</time>
      </trkpt>
      <trkpt lat="44.22466" lon="5.97911">
        <ele>1101.33</ele>
        <time>2013-06-07T15:31:54Z</time>
      </trkpt>
      <trkpt lat="44.22466" lon="5.9791">
        <ele>1110.94</ele>
        <time>2013-06-07T15:31:55Z</time>
      </trkpt>
      <trkpt lat="44.22466" lon="5.97907">
        <ele>1105.65</ele>
        <time>2013-06-07T15:31:56Z</time>
      </trkpt>
      <trkpt lat="44.22465" lon="5.97905">
        <ele>1101.33</ele>
        <time>2013-06-07T15:31:59Z</time>
      </trkpt>
      <trkpt lat="44.22466" lon="5.97905">
        <ele>1105.65</ele>
        <time>2013-06-07T15:32:00Z</time>
      </trkpt>
      <trkpt lat="44.22465" lon="5.97904">
        <ele>1104.69</ele>
        <time>2013-06-07T15:32:19Z</time>
      </trkpt>
      <trkpt lat="44.22466" lon="5.97899">
        <ele>1105.17</ele>
        <time>2013-06-07T15:32:30Z</time>
      </trkpt>
      <trkpt lat="44.22466" lon="5.97899">
        <ele>1101.81</ele>
        <time>2013-06-07T15:32:32Z</time>
      </trkpt>
      <trkpt lat="44.22466" lon="5.979">
        <ele>1105.65</ele>
        <time>2013-06-07T15:32:33Z</time>
      </trkpt>
      <trkpt lat="44.22467" lon="5.979">
        <ele>1105.17</ele>
        <time>2013-06-07T15:32:49Z</time>
      </trkpt>
      <trkpt lat="44.22468" lon="5.97902">
        <ele>1101.33</ele>
        <time>2013-06-07T15:33:09Z</time>
      </trkpt>
      <trkpt lat="44.22467" lon="5.979">
        <ele>1104.69</ele>
        <time>2013-06-07T15:33:11Z</time>
      </trkpt>
      <trkpt lat="44.22469" lon="5.97899">
        <ele>1104.21</ele>
        <time>2013-06-07T15:33:16Z</time>
      </trkpt>
      <trkpt lat="44.22475" lon="5.97905">
        <ele>1104.21</ele>
        <time>2013-06-07T15:33:32Z</time>
      </trkpt>
      <trkpt lat="44.22468" lon="5.9791">
        <ele>1108.54</ele>
        <time>2013-06-07T15:33:43Z</time>
      </trkpt>
      <trkpt lat="44.22467" lon="5.97909">
        <ele>1104.69</ele>
        <time>2013-06-07T15:33:44Z</time>
      </trkpt>
      <trkpt lat="44.22466" lon="5.97903">
        <ele>1104.69</ele>
        <time>2013-06-07T15:34:01Z</time>
      </trkpt>
      <trkpt lat="44.22472" lon="5.97894">
        <ele>1102.29</ele>
        <time>2013-06-07T15:34:22Z</time>
      </trkpt>
      <trkpt lat="44.22471" lon="5.9789">
        <ele>1103.25</ele>
        <time>2013-06-07T15:34:44Z</time>
      </trkpt>
      <trkpt lat="44.22471" lon="5.97892">
        <ele>1102.77</ele>
        <time>2013-06-07T15:34:56Z</time>
      </trkpt>
      <trkpt lat="44.22469" lon="5.97896">
        <ele>1103.73</ele>
        <time>2013-06-07T15:35:12Z</time>
      </trkpt>
      <trkpt lat="44.22466" lon="5.97896">
        <ele>1103.73</ele>
        <time>2013-06-07T15:35:30Z</time>
      </trkpt>
      <trkpt lat="44.22464" lon="5.97894">
        <ele>1104.69</ele>
        <time>2013-06-07T15:35:33Z</time>
      </trkpt>
      <trkpt lat="44.22461" lon="5.97888">
        <ele>1104.21</ele>
        <time>2013-06-07T15:35:46Z</time>
      </trkpt>
      <trkpt lat="44.2246" lon="5.97886">
        <ele>1104.69</ele>
        <time>2013-06-07T15:36:05Z</time>
      </trkpt>
      <trkpt lat="44.2246" lon="5.97891">
        <ele>1104.21</ele>
        <time>2013-06-07T15:36:17Z</time>
      </trkpt>
      <trkpt lat="44.22459" lon="5.97895">
        <ele>1104.21</ele>
        <time>2013-06-07T15:36:34Z</time>
      </trkpt>
      <trkpt lat="44.2246" lon="5.97896">
        <ele>1103.73</ele>
        <time>2013-06-07T15:36:50Z</time>
      </trkpt>
      <trkpt lat="44.2246" lon="5.97889">
        <ele>1103.73</ele>
        <time>2013-06-07T15:37:17Z</time>
      </trkpt>
      <trkpt lat="44.22465" lon="5.97891">
        <ele>1104.21</ele>
        <time>2013-06-07T15:37:41Z</time>
      </trkpt>
      <trkpt lat="44.22463" lon="5.97892">
        <ele>1104.21</ele>
        <time>2013-06-07T15:38:13Z</time>
      </trkpt>
      <trkpt lat="44.22461" lon="5.97892">
        <ele>1104.21</ele>
        <time>2013-06-07T15:38:35Z</time>
      </trkpt>
      <trkpt lat="44.22462" lon="5.97894">
        <ele>1104.21</ele>
        <time>2013-06-07T15:38:55Z</time>
      </trkpt>
      <trkpt lat="44.22464" lon="5.97895">
        <ele>1104.21</ele>
        <time>2013-06-07T15:39:07Z</time>
      </trkpt>
      <trkpt lat="44.22464" lon="5.97895">
        <ele>1104.69</ele>
        <time>2013-06-07T15:39:29Z</time>
      </trkpt>
      <trkpt lat="44.22461" lon="5.97896">
        <ele>1104.69</ele>
        <time>2013-06-07T15:40:00Z</time>
      </trkpt>
      <trkpt lat="44.22461" lon="5.97896">
        <ele>1105.17</ele>
        <time>2013-06-07T15:40:25Z</time>
      </trkpt>
      <trkpt lat="44.22461" lon="5.97897">
        <ele>1105.17</ele>
        <time>2013-06-07T15:40:39Z</time>
      </trkpt>
      <trkpt lat="44.22463" lon="5.97896">
        <ele>1105.17</ele>
        <time>2013-06-07T15:40:58Z</time>
      </trkpt>
      <trkpt lat="44.22464" lon="5.97898">
        <ele>1105.17</ele>
        <time>2013-06-07T15:41:29Z</time>
      </trkpt>
      <trkpt lat="44.22463" lon="5.97896">
        <ele>1105.17</ele>
        <time>2013-06-07T15:41:57Z</time>
      </trkpt>
      <trkpt lat="44.22465" lon="5.97896">
        <ele>1105.17</ele>
        <time>2013-06-07T15:42:26Z</time>
      </trkpt>
      <trkpt lat="44.22465" lon="5.97896">
        <ele>1103.25</ele>
        <time>2013-06-07T15:42:48Z</time>
      </trkpt>
      <trkpt lat="44.22466" lon="5.97897">
        <ele>1106.13</ele>
        <time>2013-06-07T15:42:49Z</time>
      </trkpt>
      <trkpt lat="44.22466" lon="5.97899">
        <ele>1104.69</ele>
        <time>2013-06-07T15:43:03Z</time>
      </trkpt>
      <trkpt lat="44.22468" lon="5.97897">
        <ele>1104.69</ele>
        <time>2013-06-07T15:43:23Z</time>
      </trkpt>
      <trkpt lat="44.22467" lon="5.97901">
        <ele>1104.69</ele>
        <time>2013-06-07T15:43:39Z</time>
      </trkpt>
      <trkpt lat="44.22469" lon="5.97896">
        <ele>1105.65</ele>
        <time>2013-06-07T15:43:56Z</time>
      </trkpt>
      <trkpt lat="44.22471" lon="5.97902">
        <ele>1105.17</ele>
        <time>2013-06-07T15:44:12Z</time>
      </trkpt>
      <trkpt lat="44.22464" lon="5.97899">
        <ele>1103.73</ele>
        <time>2013-06-07T15:44:26Z</time>
      </trkpt>
      <trkpt lat="44.22466" lon="5.97897">
        <ele>1104.69</ele>
        <time>2013-06-07T15:44:45Z</time>
      </trkpt>
      <trkpt lat="44.22467" lon="5.97899">
        <ele>1104.69</ele>
        <time>2013-06-07T15:45:06Z</time>
      </trkpt>
      <trkpt lat="44.22466" lon="5.97897">
        <ele>1104.69</ele>
        <time>2013-06-07T15:45:32Z</time>
      </trkpt>
      <trkpt lat="44.22466" lon="5.97896">
        <ele>1104.69</ele>
        <time>2013-06-07T15:45:53Z</time>
      </trkpt>
      <trkpt lat="44.22467" lon="5.97898">
        <ele>1105.17</ele>
        <time>2013-06-07T15:46:10Z</time>
      </trkpt>
      <trkpt lat="44.22465" lon="5.97896">
        <ele>1104.69</ele>
        <time>2013-06-07T15:46:34Z</time>
      </trkpt>
      <trkpt lat="44.22467" lon="5.97898">
        <ele>1105.17</ele>
        <time>2013-06-07T15:46:54Z</time>
      </trkpt>
      <trkpt lat="44.22466" lon="5.97897">
        <ele>1104.69</ele>
        <time>2013-06-07T15:47:26Z</time>
      </trkpt>
      <trkpt lat="44.22466" lon="5.97899">
        <ele>1106.13</ele>
        <time>2013-06-07T15:47:39Z</time>
      </trkpt>
      <trkpt lat="44.22466" lon="5.97899">
        <ele>1105.17</ele>
        <time>2013-06-07T15:48:00Z</time>
      </trkpt>
      <trkpt lat="44.22465" lon="5.97897">
        <ele>1105.17</ele>
        <time>2013-06-07T15:48:20Z</time>
      </trkpt>
      <trkpt lat="44.2246" lon="5.97897">
        <ele>1105.17</ele>
        <time>2013-06-07T15:48:36Z</time>
      </trkpt>
      <trkpt lat="44.22456" lon="5.97897">
        <ele>1104.69</ele>
        <time>2013-06-07T15:48:52Z</time>
      </trkpt>
      <trkpt lat="44.22452" lon="5.97901">
        <ele>1103.25</ele>
        <time>2013-06-07T15:48:56Z</time>
      </trkpt>
      <trkpt lat="44.22436" lon="5.97911">
        <ele>1104.21</ele>
        <time>2013-06-07T15:49:09Z</time>
      </trkpt>
      <trkpt lat="44.22427" lon="5.97915">
        <ele>1103.73</ele>
        <time>2013-06-07T15:49:21Z</time>
      </trkpt>
      <trkpt lat="44.22427" lon="5.97921">
        <ele>1102.77</ele>
        <time>2013-06-07T15:49:27Z</time>
      </trkpt>
      <trkpt lat="44.22428" lon="5.97931">
        <ele>1104.21</ele>
        <time>2013-06-07T15:49:35Z</time>
      </trkpt>
      <trkpt lat="44.2243" lon="5.97938">
        <ele>1102.29</ele>
        <time>2013-06-07T15:49:43Z</time>
      </trkpt>
      <trkpt lat="44.22434" lon="5.97955">
        <ele>1103.25</ele>
        <time>2013-06-07T15:49:55Z</time>
      </trkpt>
      <trkpt lat="44.22437" lon="5.97961">
        <ele>1102.29</ele>
        <time>2013-06-07T15:50:01Z</time>
      </trkpt>
      <trkpt lat="44.22446" lon="5.97975">
        <ele>1099.89</ele>
        <time>2013-06-07T15:50:14Z</time>
      </trkpt>
      <trkpt lat="44.22447" lon="5.97997">
        <ele>1101.81</ele>
        <time>2013-06-07T15:50:28Z</time>
      </trkpt>
      <trkpt lat="44.22452" lon="5.98024">
        <ele>1101.33</ele>
        <time>2013-06-07T15:50:45Z</time>
      </trkpt>
      <trkpt lat="44.22445" lon="5.98037">
        <ele>1099.4</ele>
        <time>2013-06-07T15:51:02Z</time>
      </trkpt>
      <trkpt lat="44.22446" lon="5.98046">
        <ele>1097.48</ele>
        <time>2013-06-07T15:51:21Z</time>
      </trkpt>
      <trkpt lat="44.22451" lon="5.98059">
        <ele>1095.08</ele>
        <time>2013-06-07T15:51:29Z</time>
      </trkpt>
      <trkpt lat="44.22455" lon="5.98066">
        <ele>1095.08</ele>
        <time>2013-06-07T15:51:43Z</time>
      </trkpt>
      <trkpt lat="44.22451" lon="5.98072">
        <ele>1094.12</ele>
        <time>2013-06-07T15:51:56Z</time>
      </trkpt>
      <trkpt lat="44.22455" lon="5.98084">
        <ele>1092.68</ele>
        <time>2013-06-07T15:52:07Z</time>
      </trkpt>
      <trkpt lat="44.22461" lon="5.98094">
        <ele>1092.2</ele>
        <time>2013-06-07T15:52:13Z</time>
      </trkpt>
      <trkpt lat="44.22464" lon="5.98096">
        <ele>1091.23</ele>
        <time>2013-06-07T15:52:15Z</time>
      </trkpt>
      <trkpt lat="44.22468" lon="5.98103">
        <ele>1090.27</ele>
        <time>2013-06-07T15:52:19Z</time>
      </trkpt>
      <trkpt lat="44.22472" lon="5.9811">
        <ele>1089.79</ele>
        <time>2013-06-07T15:52:23Z</time>
      </trkpt>
      <trkpt lat="44.22481" lon="5.9813">
        <ele>1085.95</ele>
        <time>2013-06-07T15:52:37Z</time>
      </trkpt>
      <trkpt lat="44.22487" lon="5.98141">
        <ele>1083.06</ele>
        <time>2013-06-07T15:52:44Z</time>
      </trkpt>
      <trkpt lat="44.22488" lon="5.98143">
        <ele>1084.02</ele>
        <time>2013-06-07T15:52:45Z</time>
      </trkpt>
      <trkpt lat="44.22494" lon="5.98165">
        <ele>1082.1</ele>
        <time>2013-06-07T15:52:58Z</time>
      </trkpt>
      <trkpt lat="44.22495" lon="5.98183">
        <ele>1079.22</ele>
        <time>2013-06-07T15:53:10Z</time>
      </trkpt>
      <trkpt lat="44.22495" lon="5.98184">
        <ele>1079.7</ele>
        <time>2013-06-07T15:53:11Z</time>
      </trkpt>
      <trkpt lat="44.22498" lon="5.98212">
        <ele>1076.33</ele>
        <time>2013-06-07T15:53:28Z</time>
      </trkpt>
      <trkpt lat="44.22496" lon="5.98219">
        <ele>1076.33</ele>
        <time>2013-06-07T15:53:32Z</time>
      </trkpt>
      <trkpt lat="44.22496" lon="5.98229">
        <ele>1073.93</ele>
        <time>2013-06-07T15:53:39Z</time>
      </trkpt>
      <trkpt lat="44.22483" lon="5.98235">
        <ele>1073.45</ele>
        <time>2013-06-07T15:53:54Z</time>
      </trkpt>
      <trkpt lat="44.22477" lon="5.98232">
        <ele>1073.93</ele>
        <time>2013-06-07T15:54:01Z</time>
      </trkpt>
      <trkpt lat="44.22471" lon="5.98232">
        <ele>1073.45</ele>
        <time>2013-06-07T15:54:08Z</time>
      </trkpt>
      <trkpt lat="44.22456" lon="5.98225">
        <ele>1072.01</ele>
        <time>2013-06-07T15:54:22Z</time>
      </trkpt>
      <trkpt lat="44.22442" lon="5.98222">
        <ele>1068.64</ele>
        <time>2013-06-07T15:54:36Z</time>
      </trkpt>
      <trkpt lat="44.22429" lon="5.98215">
        <ele>1065.76</ele>
        <time>2013-06-07T15:54:50Z</time>
      </trkpt>
      <trkpt lat="44.22422" lon="5.98212">
        <ele>1064.8</ele>
        <time>2013-06-07T15:54:56Z</time>
      </trkpt>
      <trkpt lat="44.2241" lon="5.98203">
        <ele>1062.39</ele>
        <time>2013-06-07T15:55:10Z</time>
      </trkpt>
      <trkpt lat="44.22395" lon="5.982">
        <ele>1059.03</ele>
        <time>2013-06-07T15:55:24Z</time>
      </trkpt>
      <trkpt lat="44.22375" lon="5.98198">
        <ele>1056.63</ele>
        <time>2013-06-07T15:55:41Z</time>
      </trkpt>
      <trkpt lat="44.22357" lon="5.98196">
        <ele>1052.78</ele>
        <time>2013-06-07T15:55:57Z</time>
      </trkpt>
      <trkpt lat="44.22339" lon="5.98195">
        <ele>1050.86</ele>
        <time>2013-06-07T15:56:08Z</time>
      </trkpt>
      <trkpt lat="44.22325" lon="5.98191">
        <ele>1047.49</ele>
        <time>2013-06-07T15:56:21Z</time>
      </trkpt>
      <trkpt lat="44.22322" lon="5.9819">
        <ele>1049.9</ele>
        <time>2013-06-07T15:56:23Z</time>
      </trkpt>
      <trkpt lat="44.22308" lon="5.98188">
        <ele>1046.53</ele>
        <time>2013-06-07T15:56:37Z</time>
      </trkpt>
      <trkpt lat="44.22294" lon="5.98191">
        <ele>1045.09</ele>
        <time>2013-06-07T15:56:46Z</time>
      </trkpt>
      <trkpt lat="44.22279" lon="5.98199">
        <ele>1043.65</ele>
        <time>2013-06-07T15:56:53Z</time>
      </trkpt>
      <trkpt lat="44.22267" lon="5.98209">
        <ele>1040.76</ele>
        <time>2013-06-07T15:57:04Z</time>
      </trkpt>
      <trkpt lat="44.22257" lon="5.98211">
        <ele>1037.4</ele>
        <time>2013-06-07T15:57:16Z</time>
      </trkpt>
      <trkpt lat="44.2225" lon="5.98223">
        <ele>1035.48</ele>
        <time>2013-06-07T15:57:30Z</time>
      </trkpt>
      <trkpt lat="44.2225" lon="5.98232">
        <ele>1035</ele>
        <time>2013-06-07T15:57:35Z</time>
      </trkpt>
      <trkpt lat="44.22251" lon="5.98239">
        <ele>1033.07</ele>
        <time>2013-06-07T15:57:38Z</time>
      </trkpt>
      <trkpt lat="44.22247" lon="5.9825">
        <ele>1030.67</ele>
        <time>2013-06-07T15:57:48Z</time>
      </trkpt>
      <trkpt lat="44.2224" lon="5.98252">
        <ele>1026.83</ele>
        <time>2013-06-07T15:57:55Z</time>
      </trkpt>
      <trkpt lat="44.22235" lon="5.98271">
        <ele>1026.34</ele>
        <time>2013-06-07T15:58:09Z</time>
      </trkpt>
      <trkpt lat="44.22231" lon="5.98289">
        <ele>1022.98</ele>
        <time>2013-06-07T15:58:23Z</time>
      </trkpt>
      <trkpt lat="44.22231" lon="5.98307">
        <ele>1022.02</ele>
        <time>2013-06-07T15:58:32Z</time>
      </trkpt>
      <trkpt lat="44.2223" lon="5.98317">
        <ele>1019.62</ele>
        <time>2013-06-07T15:58:40Z</time>
      </trkpt>
      <trkpt lat="44.22229" lon="5.98323">
        <ele>1018.17</ele>
        <time>2013-06-07T15:58:47Z</time>
      </trkpt>
      <trkpt lat="44.22227" lon="5.98327">
        <ele>1018.17</ele>
        <time>2013-06-07T15:58:50Z</time>
      </trkpt>
      <trkpt lat="44.22226" lon="5.98342">
        <ele>1015.29</ele>
        <time>2013-06-07T15:59:00Z</time>
      </trkpt>
      <trkpt lat="44.22217" lon="5.98351">
        <ele>1013.85</ele>
        <time>2013-06-07T15:59:12Z</time>
      </trkpt>
      <trkpt lat="44.22207" lon="5.9835">
        <ele>1011.93</ele>
        <time>2013-06-07T15:59:25Z</time>
      </trkpt>
      <trkpt lat="44.22204" lon="5.9835">
        <ele>1010.96</ele>
        <time>2013-06-07T15:59:31Z</time>
      </trkpt>
      <trkpt lat="44.22192" lon="5.98362">
        <ele>1007.6</ele>
        <time>2013-06-07T15:59:45Z</time>
      </trkpt>
      <trkpt lat="44.22181" lon="5.98376">
        <ele>1004.72</ele>
        <time>2013-06-07T16:00:00Z</time>
      </trkpt>
      <trkpt lat="44.22166" lon="5.98388">
        <ele>1002.79</ele>
        <time>2013-06-07T16:00:17Z</time>
      </trkpt>
      <trkpt lat="44.2216" lon="5.98411">
        <ele>1000.87</ele>
        <time>2013-06-07T16:00:30Z</time>
      </trkpt>
      <trkpt lat="44.2216" lon="5.98412">
        <ele>999.91</ele>
        <time>2013-06-07T16:00:31Z</time>
      </trkpt>
      <trkpt lat="44.2216" lon="5.98422">
        <ele>998.95</ele>
        <time>2013-06-07T16:00:36Z</time>
      </trkpt>
      <trkpt lat="44.22164" lon="5.98445">
        <ele>994.62</ele>
        <time>2013-06-07T16:00:48Z</time>
      </trkpt>
      <trkpt lat="44.22168" lon="5.98453">
        <ele>994.14</ele>
        <time>2013-06-07T16:00:55Z</time>
      </trkpt>
      <trkpt lat="44.22175" lon="5.98473">
        <ele>992.22</ele>
        <time>2013-06-07T16:01:09Z</time>
      </trkpt>
      <trkpt lat="44.22175" lon="5.98476">
        <ele>991.26</ele>
        <time>2013-06-07T16:01:11Z</time>
      </trkpt>
      <trkpt lat="44.22176" lon="5.98479">
        <ele>990.78</ele>
        <time>2013-06-07T16:01:13Z</time>
      </trkpt>
      <trkpt lat="44.22178" lon="5.98499">
        <ele>986.93</ele>
        <time>2013-06-07T16:01:27Z</time>
      </trkpt>
      <trkpt lat="44.22178" lon="5.98501">
        <ele>986.93</ele>
        <time>2013-06-07T16:01:28Z</time>
      </trkpt>
      <trkpt lat="44.22181" lon="5.98518">
        <ele>985.49</ele>
        <time>2013-06-07T16:01:41Z</time>
      </trkpt>
      <trkpt lat="44.22186" lon="5.98529">
        <ele>983.57</ele>
        <time>2013-06-07T16:01:49Z</time>
      </trkpt>
      <trkpt lat="44.22196" lon="5.98541">
        <ele>982.12</ele>
        <time>2013-06-07T16:01:57Z</time>
      </trkpt>
      <trkpt lat="44.22206" lon="5.98555">
        <ele>982.12</ele>
        <time>2013-06-07T16:02:07Z</time>
      </trkpt>
      <trkpt lat="44.22216" lon="5.98574">
        <ele>981.16</ele>
        <time>2013-06-07T16:02:20Z</time>
      </trkpt>
      <trkpt lat="44.22227" lon="5.98592">
        <ele>980.2</ele>
        <time>2013-06-07T16:02:33Z</time>
      </trkpt>
      <trkpt lat="44.22234" lon="5.9861">
        <ele>980.2</ele>
        <time>2013-06-07T16:02:46Z</time>
      </trkpt>
      <trkpt lat="44.22246" lon="5.98626">
        <ele>979.24</ele>
        <time>2013-06-07T16:02:59Z</time>
      </trkpt>
      <trkpt lat="44.22259" lon="5.9864">
        <ele>977.32</ele>
        <time>2013-06-07T16:03:14Z</time>
      </trkpt>
      <trkpt lat="44.22274" lon="5.98649">
        <ele>977.32</ele>
        <time>2013-06-07T16:03:28Z</time>
      </trkpt>
      <trkpt lat="44.22278" lon="5.98652">
        <ele>975.88</ele>
        <time>2013-06-07T16:03:31Z</time>
      </trkpt>
      <trkpt lat="44.22285" lon="5.98656">
        <ele>976.36</ele>
        <time>2013-06-07T16:03:35Z</time>
      </trkpt>
      <trkpt lat="44.22294" lon="5.98683">
        <ele>973.95</ele>
        <time>2013-06-07T16:03:49Z</time>
      </trkpt>
      <trkpt lat="44.22299" lon="5.98692">
        <ele>973.47</ele>
        <time>2013-06-07T16:03:55Z</time>
      </trkpt>
      <trkpt lat="44.22301" lon="5.98697">
        <ele>972.03</ele>
        <time>2013-06-07T16:03:58Z</time>
      </trkpt>
      <trkpt lat="44.22302" lon="5.98706">
        <ele>972.51</ele>
        <time>2013-06-07T16:04:04Z</time>
      </trkpt>
      <trkpt lat="44.22308" lon="5.98724">
        <ele>971.55</ele>
        <time>2013-06-07T16:04:16Z</time>
      </trkpt>
      <trkpt lat="44.2231" lon="5.98744">
        <ele>971.07</ele>
        <time>2013-06-07T16:04:28Z</time>
      </trkpt>
      <trkpt lat="44.22311" lon="5.98752">
        <ele>969.15</ele>
        <time>2013-06-07T16:04:33Z</time>
      </trkpt>
      <trkpt lat="44.22311" lon="5.9876">
        <ele>969.15</ele>
        <time>2013-06-07T16:04:38Z</time>
      </trkpt>
      <trkpt lat="44.22312" lon="5.9878">
        <ele>967.22</ele>
        <time>2013-06-07T16:04:51Z</time>
      </trkpt>
      <trkpt lat="44.22313" lon="5.98785">
        <ele>965.78</ele>
        <time>2013-06-07T16:04:54Z</time>
      </trkpt>
      <trkpt lat="44.22314" lon="5.98806">
        <ele>962.42</ele>
        <time>2013-06-07T16:05:07Z</time>
      </trkpt>
      <trkpt lat="44.22311" lon="5.98811">
        <ele>963.38</ele>
        <time>2013-06-07T16:05:11Z</time>
      </trkpt>
      <trkpt lat="44.2231" lon="5.98827">
        <ele>960.49</ele>
        <time>2013-06-07T16:05:25Z</time>
      </trkpt>
      <trkpt lat="44.22312" lon="5.98828">
        <ele>960.01</ele>
        <time>2013-06-07T16:05:26Z</time>
      </trkpt>
      <trkpt lat="44.22325" lon="5.98837">
        <ele>956.65</ele>
        <time>2013-06-07T16:05:37Z</time>
      </trkpt>
      <trkpt lat="44.2234" lon="5.98851">
        <ele>954.73</ele>
        <time>2013-06-07T16:05:50Z</time>
      </trkpt>
      <trkpt lat="44.2234" lon="5.98854">
        <ele>954.25</ele>
        <time>2013-06-07T16:05:52Z</time>
      </trkpt>
      <trkpt lat="44.2235" lon="5.98882">
        <ele>951.84</ele>
        <time>2013-06-07T16:06:09Z</time>
      </trkpt>
      <trkpt lat="44.22352" lon="5.9889">
        <ele>951.84</ele>
        <time>2013-06-07T16:06:25Z</time>
      </trkpt>
      <trkpt lat="44.22349" lon="5.98894">
        <ele>952.32</ele>
        <time>2013-06-07T16:06:49Z</time>
      </trkpt>
      <trkpt lat="44.2236" lon="5.98894">
        <ele>951.84</ele>
        <time>2013-06-07T16:07:14Z</time>
      </trkpt>
      <trkpt lat="44.22361" lon="5.98895">
        <ele>951.84</ele>
        <time>2013-06-07T16:07:34Z</time>
      </trkpt>
      <trkpt lat="44.22358" lon="5.98892">
        <ele>951.84</ele>
        <time>2013-06-07T16:07:57Z</time>
      </trkpt>
      <trkpt lat="44.2235" lon="5.98894">
        <ele>952.32</ele>
        <time>2013-06-07T16:08:15Z</time>
      </trkpt>
      <trkpt lat="44.22367" lon="5.98902">
        <ele>950.4</ele>
        <time>2013-06-07T16:08:30Z</time>
      </trkpt>
      <trkpt lat="44.22378" lon="5.98913">
        <ele>953.28</ele>
        <time>2013-06-07T16:08:40Z</time>
      </trkpt>
      <trkpt lat="44.22385" lon="5.98923">
        <ele>952.8</ele>
        <time>2013-06-07T16:08:50Z</time>
      </trkpt>
      <trkpt lat="44.22388" lon="5.98923">
        <ele>954.25</ele>
        <time>2013-06-07T16:08:52Z</time>
      </trkpt>
      <trkpt lat="44.22398" lon="5.98927">
        <ele>953.77</ele>
        <time>2013-06-07T16:09:04Z</time>
      </trkpt>
      <trkpt lat="44.22401" lon="5.98939">
        <ele>952.8</ele>
        <time>2013-06-07T16:09:11Z</time>
      </trkpt>
      <trkpt lat="44.22397" lon="5.98968">
        <ele>950.4</ele>
        <time>2013-06-07T16:09:28Z</time>
      </trkpt>
      <trkpt lat="44.22394" lon="5.98981">
        <ele>949.92</ele>
        <time>2013-06-07T16:09:35Z</time>
      </trkpt>
      <trkpt lat="44.22396" lon="5.99">
        <ele>948</ele>
        <time>2013-06-07T16:09:49Z</time>
      </trkpt>
      <trkpt lat="44.22397" lon="5.99">
        <ele>947.52</ele>
        <time>2013-06-07T16:09:50Z</time>
      </trkpt>
      <trkpt lat="44.22413" lon="5.98989">
        <ele>946.07</ele>
        <time>2013-06-07T16:10:04Z</time>
      </trkpt>
      <trkpt lat="44.22415" lon="5.98988">
        <ele>945.59</ele>
        <time>2013-06-07T16:10:05Z</time>
      </trkpt>
      <trkpt lat="44.22427" lon="5.98994">
        <ele>946.56</ele>
        <time>2013-06-07T16:10:14Z</time>
      </trkpt>
      <trkpt lat="44.22436" lon="5.99006">
        <ele>945.11</ele>
        <time>2013-06-07T16:10:20Z</time>
      </trkpt>
      <trkpt lat="44.22439" lon="5.99028">
        <ele>944.15</ele>
        <time>2013-06-07T16:10:33Z</time>
      </trkpt>
      <trkpt lat="44.22436" lon="5.99053">
        <ele>943.19</ele>
        <time>2013-06-07T16:10:47Z</time>
      </trkpt>
      <trkpt lat="44.22439" lon="5.99059">
        <ele>943.67</ele>
        <time>2013-06-07T16:10:52Z</time>
      </trkpt>
      <trkpt lat="44.22452" lon="5.99077">
        <ele>942.71</ele>
        <time>2013-06-07T16:11:05Z</time>
      </trkpt>
      <trkpt lat="44.22457" lon="5.99097">
        <ele>942.71</ele>
        <time>2013-06-07T16:11:16Z</time>
      </trkpt>
      <trkpt lat="44.22462" lon="5.99115">
        <ele>942.23</ele>
        <time>2013-06-07T16:11:27Z</time>
      </trkpt>
      <trkpt lat="44.22472" lon="5.9913">
        <ele>940.79</ele>
        <time>2013-06-07T16:11:39Z</time>
      </trkpt>
      <trkpt lat="44.22479" lon="5.99153">
        <ele>940.79</ele>
        <time>2013-06-07T16:11:52Z</time>
      </trkpt>
      <trkpt lat="44.22488" lon="5.99178">
        <ele>940.79</ele>
        <time>2013-06-07T16:12:06Z</time>
      </trkpt>
      <trkpt lat="44.22494" lon="5.99201">
        <ele>940.31</ele>
        <time>2013-06-07T16:12:19Z</time>
      </trkpt>
      <trkpt lat="44.22493" lon="5.99209">
        <ele>940.31</ele>
        <time>2013-06-07T16:12:24Z</time>
      </trkpt>
      <trkpt lat="44.22488" lon="5.99235">
        <ele>938.86</ele>
        <time>2013-06-07T16:12:40Z</time>
      </trkpt>
      <trkpt lat="44.22483" lon="5.99258">
        <ele>937.42</ele>
        <time>2013-06-07T16:12:53Z</time>
      </trkpt>
      <trkpt lat="44.22475" lon="5.99284">
        <ele>935.98</ele>
        <time>2013-06-07T16:13:08Z</time>
      </trkpt>
      <trkpt lat="44.22478" lon="5.99302">
        <ele>934.54</ele>
        <time>2013-06-07T16:13:18Z</time>
      </trkpt>
      <trkpt lat="44.22481" lon="5.99309">
        <ele>933.58</ele>
        <time>2013-06-07T16:13:22Z</time>
      </trkpt>
      <trkpt lat="44.22483" lon="5.99331">
        <ele>932.14</ele>
        <time>2013-06-07T16:13:36Z</time>
      </trkpt>
      <trkpt lat="44.22485" lon="5.9934">
        <ele>930.21</ele>
        <time>2013-06-07T16:13:43Z</time>
      </trkpt>
      <trkpt lat="44.22488" lon="5.99348">
        <ele>929.25</ele>
        <time>2013-06-07T16:13:48Z</time>
      </trkpt>
      <trkpt lat="44.22488" lon="5.99374">
        <ele>926.37</ele>
        <time>2013-06-07T16:14:03Z</time>
      </trkpt>
      <trkpt lat="44.22488" lon="5.99382">
        <ele>925.41</ele>
        <time>2013-06-07T16:14:09Z</time>
      </trkpt>
      <trkpt lat="44.22501" lon="5.99389">
        <ele>923.48</ele>
        <time>2013-06-07T16:14:21Z</time>
      </trkpt>
      <trkpt lat="44.22519" lon="5.99393">
        <ele>921.08</ele>
        <time>2013-06-07T16:14:34Z</time>
      </trkpt>
      <trkpt lat="44.22521" lon="5.99399">
        <ele>922.04</ele>
        <time>2013-06-07T16:14:37Z</time>
      </trkpt>
      <trkpt lat="44.2252" lon="5.99411">
        <ele>919.16</ele>
        <time>2013-06-07T16:14:45Z</time>
      </trkpt>
      <trkpt lat="44.22517" lon="5.99435">
        <ele>916.27</ele>
        <time>2013-06-07T16:15:00Z</time>
      </trkpt>
      <trkpt lat="44.22517" lon="5.99453">
        <ele>914.35</ele>
        <time>2013-06-07T16:15:13Z</time>
      </trkpt>
      <trkpt lat="44.22522" lon="5.9947">
        <ele>911.47</ele>
        <time>2013-06-07T16:15:24Z</time>
      </trkpt>
      <trkpt lat="44.22523" lon="5.99475">
        <ele>910.51</ele>
        <time>2013-06-07T16:15:28Z</time>
      </trkpt>
      <trkpt lat="44.22527" lon="5.99482">
        <ele>909.54</ele>
        <time>2013-06-07T16:15:33Z</time>
      </trkpt>
      <trkpt lat="44.22531" lon="5.99491">
        <ele>908.1</ele>
        <time>2013-06-07T16:15:39Z</time>
      </trkpt>
      <trkpt lat="44.22529" lon="5.99494">
        <ele>908.58</ele>
        <time>2013-06-07T16:15:52Z</time>
      </trkpt>
      <trkpt lat="44.22527" lon="5.99491">
        <ele>909.06</ele>
        <time>2013-06-07T16:16:17Z</time>
      </trkpt>
      <trkpt lat="44.22525" lon="5.99489">
        <ele>908.58</ele>
        <time>2013-06-07T16:16:40Z</time>
      </trkpt>
      <trkpt lat="44.22522" lon="5.99486">
        <ele>909.06</ele>
        <time>2013-06-07T16:16:44Z</time>
      </trkpt>
      <trkpt lat="44.22509" lon="5.99487">
        <ele>907.14</ele>
        <time>2013-06-07T16:16:59Z</time>
      </trkpt>
      <trkpt lat="44.22514" lon="5.99487">
        <ele>907.14</ele>
        <time>2013-06-07T16:17:16Z</time>
      </trkpt>
      <trkpt lat="44.22511" lon="5.99493">
        <ele>905.7</ele>
        <time>2013-06-07T16:17:33Z</time>
      </trkpt>
      <trkpt lat="44.22508" lon="5.99501">
        <ele>901.85</ele>
        <time>2013-06-07T16:17:44Z</time>
      </trkpt>
      <trkpt lat="44.22505" lon="5.99503">
        <ele>902.33</ele>
        <time>2013-06-07T16:17:46Z</time>
      </trkpt>
      <trkpt lat="44.22501" lon="5.9952">
        <ele>899.93</ele>
        <time>2013-06-07T16:17:57Z</time>
      </trkpt>
      <trkpt lat="44.22505" lon="5.99527">
        <ele>899.45</ele>
        <time>2013-06-07T16:18:04Z</time>
      </trkpt>
      <trkpt lat="44.22509" lon="5.99538">
        <ele>898.49</ele>
        <time>2013-06-07T16:18:21Z</time>
      </trkpt>
      <trkpt lat="44.22514" lon="5.99553">
        <ele>896.57</ele>
        <time>2013-06-07T16:18:34Z</time>
      </trkpt>
      <trkpt lat="44.22521" lon="5.99563">
        <ele>895.61</ele>
        <time>2013-06-07T16:18:40Z</time>
      </trkpt>
      <trkpt lat="44.22528" lon="5.99576">
        <ele>893.68</ele>
        <time>2013-06-07T16:18:49Z</time>
      </trkpt>
      <trkpt lat="44.22537" lon="5.99592">
        <ele>893.2</ele>
        <time>2013-06-07T16:19:04Z</time>
      </trkpt>
      <trkpt lat="44.22541" lon="5.99605">
        <ele>892.24</ele>
        <time>2013-06-07T16:19:15Z</time>
      </trkpt>
      <trkpt lat="44.22543" lon="5.99623">
        <ele>891.28</ele>
        <time>2013-06-07T16:19:27Z</time>
      </trkpt>
      <trkpt lat="44.22539" lon="5.99643">
        <ele>890.32</ele>
        <time>2013-06-07T16:19:40Z</time>
      </trkpt>
      <trkpt lat="44.22531" lon="5.99659">
        <ele>889.36</ele>
        <time>2013-06-07T16:19:59Z</time>
      </trkpt>
      <trkpt lat="44.22536" lon="5.9966">
        <ele>888.88</ele>
        <time>2013-06-07T16:20:06Z</time>
      </trkpt>
      <trkpt lat="44.22545" lon="5.99666">
        <ele>887.91</ele>
        <time>2013-06-07T16:20:22Z</time>
      </trkpt>
      <trkpt lat="44.22549" lon="5.99664">
        <ele>887.91</ele>
        <time>2013-06-07T16:20:50Z</time>
      </trkpt>
      <trkpt lat="44.22546" lon="5.99666">
        <ele>887.91</ele>
        <time>2013-06-07T16:21:13Z</time>
      </trkpt>
      <trkpt lat="44.22543" lon="5.99665">
        <ele>887.91</ele>
        <time>2013-06-07T16:21:41Z</time>
      </trkpt>
      <trkpt lat="44.22543" lon="5.99667">
        <ele>887.91</ele>
        <time>2013-06-07T16:22:07Z</time>
      </trkpt>
      <trkpt lat="44.2254" lon="5.99668">
        <ele>887.91</ele>
        <time>2013-06-07T16:22:29Z</time>
      </trkpt>
      <trkpt lat="44.22535" lon="5.99663">
        <ele>887.91</ele>
        <time>2013-06-07T16:22:50Z</time>
      </trkpt>
      <trkpt lat="44.22543" lon="5.99668">
        <ele>887.91</ele>
        <time>2013-06-07T16:23:13Z</time>
      </trkpt>
      <trkpt lat="44.22542" lon="5.99668">
        <ele>887.91</ele>
        <time>2013-06-07T16:23:35Z</time>
      </trkpt>
      <trkpt lat="44.22548" lon="5.99668">
        <ele>887.91</ele>
        <time>2013-06-07T16:23:54Z</time>
      </trkpt>
      <trkpt lat="44.22544" lon="5.99665">
        <ele>887.91</ele>
        <time>2013-06-07T16:24:15Z</time>
      </trkpt>
      <trkpt lat="44.22543" lon="5.99669">
        <ele>888.4</ele>
        <time>2013-06-07T16:24:39Z</time>
      </trkpt>
      <trkpt lat="44.22553" lon="5.99672">
        <ele>887.91</ele>
        <time>2013-06-07T16:24:52Z</time>
      </trkpt>
      <trkpt lat="44.22565" lon="5.99683">
        <ele>887.91</ele>
        <time>2013-06-07T16:25:04Z</time>
      </trkpt>
      <trkpt lat="44.22573" lon="5.99703">
        <ele>887.91</ele>
        <time>2013-06-07T16:25:16Z</time>
      </trkpt>
      <trkpt lat="44.22579" lon="5.99726">
        <ele>887.43</ele>
        <time>2013-06-07T16:25:30Z</time>
      </trkpt>
      <trkpt lat="44.22581" lon="5.99729">
        <ele>887.91</ele>
        <time>2013-06-07T16:25:32Z</time>
      </trkpt>
      <trkpt lat="44.22587" lon="5.99751">
        <ele>887.43</ele>
        <time>2013-06-07T16:25:45Z</time>
      </trkpt>
      <trkpt lat="44.22588" lon="5.99755">
        <ele>887.91</ele>
        <time>2013-06-07T16:25:47Z</time>
      </trkpt>
      <trkpt lat="44.22587" lon="5.99785">
        <ele>887.91</ele>
        <time>2013-06-07T16:26:03Z</time>
      </trkpt>
      <trkpt lat="44.2259" lon="5.99801">
        <ele>888.4</ele>
        <time>2013-06-07T16:26:13Z</time>
      </trkpt>
      <trkpt lat="44.22599" lon="5.9982">
        <ele>890.8</ele>
        <time>2013-06-07T16:26:26Z</time>
      </trkpt>
      <trkpt lat="44.22603" lon="5.99829">
        <ele>890.32</ele>
        <time>2013-06-07T16:26:32Z</time>
      </trkpt>
      <trkpt lat="44.22612" lon="5.9985">
        <ele>891.76</ele>
        <time>2013-06-07T16:26:48Z</time>
      </trkpt>
      <trkpt lat="44.22618" lon="5.9987">
        <ele>892.24</ele>
        <time>2013-06-07T16:27:05Z</time>
      </trkpt>
      <trkpt lat="44.22618" lon="5.99877">
        <ele>891.76</ele>
        <time>2013-06-07T16:27:10Z</time>
      </trkpt>
      <trkpt lat="44.22618" lon="5.99894">
        <ele>892.24</ele>
        <time>2013-06-07T16:27:22Z</time>
      </trkpt>
      <trkpt lat="44.22618" lon="5.99912">
        <ele>893.2</ele>
        <time>2013-06-07T16:27:34Z</time>
      </trkpt>
      <trkpt lat="44.22618" lon="5.99913">
        <ele>892.72</ele>
        <time>2013-06-07T16:27:35Z</time>
      </trkpt>
      <trkpt lat="44.22629" lon="5.99935">
        <ele>893.2</ele>
        <time>2013-06-07T16:27:47Z</time>
      </trkpt>
      <trkpt lat="44.22627" lon="5.99957">
        <ele>892.72</ele>
        <time>2013-06-07T16:28:01Z</time>
      </trkpt>
      <trkpt lat="44.22615" lon="5.99978">
        <ele>893.68</ele>
        <time>2013-06-07T16:28:15Z</time>
      </trkpt>
      <trkpt lat="44.22615" lon="5.99989">
        <ele>893.2</ele>
        <time>2013-06-07T16:28:22Z</time>
      </trkpt>
      <trkpt lat="44.22622" lon="6.00007">
        <ele>894.16</ele>
        <time>2013-06-07T16:28:34Z</time>
      </trkpt>
      <trkpt lat="44.22633" lon="6.00022">
        <ele>893.2</ele>
        <time>2013-06-07T16:28:45Z</time>
      </trkpt>
      <trkpt lat="44.22643" lon="6.00038">
        <ele>891.76</ele>
        <time>2013-06-07T16:28:56Z</time>
      </trkpt>
      <trkpt lat="44.22649" lon="6.00046">
        <ele>891.28</ele>
        <time>2013-06-07T16:29:03Z</time>
      </trkpt>
      <trkpt lat="44.2265" lon="6.00047">
        <ele>890.8</ele>
        <time>2013-06-07T16:29:04Z</time>
      </trkpt>
      <trkpt lat="44.22654" lon="6.00053">
        <ele>891.76</ele>
        <time>2013-06-07T16:29:08Z</time>
      </trkpt>
      <trkpt lat="44.22661" lon="6.00072">
        <ele>891.28</ele>
        <time>2013-06-07T16:29:22Z</time>
      </trkpt>
      <trkpt lat="44.22664" lon="6.00075">
        <ele>891.76</ele>
        <time>2013-06-07T16:29:25Z</time>
      </trkpt>
      <trkpt lat="44.22673" lon="6.00093">
        <ele>893.2</ele>
        <time>2013-06-07T16:29:38Z</time>
      </trkpt>
      <trkpt lat="44.2268" lon="6.00105">
        <ele>893.68</ele>
        <time>2013-06-07T16:29:47Z</time>
      </trkpt>
      <trkpt lat="44.22691" lon="6.00121">
        <ele>894.16</ele>
        <time>2013-06-07T16:30:00Z</time>
      </trkpt>
      <trkpt lat="44.22703" lon="6.00135">
        <ele>892.72</ele>
        <time>2013-06-07T16:30:13Z</time>
      </trkpt>
      <trkpt lat="44.22709" lon="6.00138">
        <ele>891.76</ele>
        <time>2013-06-07T16:30:18Z</time>
      </trkpt>
      <trkpt lat="44.2271" lon="6.00138">
        <ele>892.24</ele>
        <time>2013-06-07T16:30:19Z</time>
      </trkpt>
      <trkpt lat="44.22725" lon="6.00145">
        <ele>892.24</ele>
        <time>2013-06-07T16:30:33Z</time>
      </trkpt>
      <trkpt lat="44.2274" lon="6.00153">
        <ele>892.72</ele>
        <time>2013-06-07T16:30:47Z</time>
      </trkpt>
      <trkpt lat="44.22743" lon="6.00158">
        <ele>893.2</ele>
        <time>2013-06-07T16:30:51Z</time>
      </trkpt>
      <trkpt lat="44.2275" lon="6.00185">
        <ele>894.64</ele>
        <time>2013-06-07T16:31:07Z</time>
      </trkpt>
      <trkpt lat="44.22748" lon="6.00195">
        <ele>893.68</ele>
        <time>2013-06-07T16:31:14Z</time>
      </trkpt>
      <trkpt lat="44.22746" lon="6.00198">
        <ele>892.72</ele>
        <time>2013-06-07T16:31:16Z</time>
      </trkpt>
      <trkpt lat="44.22737" lon="6.00216">
        <ele>893.68</ele>
        <time>2013-06-07T16:31:28Z</time>
      </trkpt>
      <trkpt lat="44.22735" lon="6.0024">
        <ele>893.2</ele>
        <time>2013-06-07T16:31:42Z</time>
      </trkpt>
      <trkpt lat="44.22734" lon="6.00261">
        <ele>892.24</ele>
        <time>2013-06-07T16:31:55Z</time>
      </trkpt>
      <trkpt lat="44.22734" lon="6.00283">
        <ele>892.24</ele>
        <time>2013-06-07T16:32:10Z</time>
      </trkpt>
      <trkpt lat="44.22733" lon="6.00306">
        <ele>892.24</ele>
        <time>2013-06-07T16:32:23Z</time>
      </trkpt>
      <trkpt lat="44.22732" lon="6.00325">
        <ele>893.68</ele>
        <time>2013-06-07T16:32:35Z</time>
      </trkpt>
      <trkpt lat="44.22754" lon="6.00339">
        <ele>893.68</ele>
        <time>2013-06-07T16:32:50Z</time>
      </trkpt>
      <trkpt lat="44.22754" lon="6.0034">
        <ele>893.68</ele>
        <time>2013-06-07T16:33:09Z</time>
      </trkpt>
      <trkpt lat="44.22752" lon="6.00348">
        <ele>892.24</ele>
        <time>2013-06-07T16:33:21Z</time>
      </trkpt>
      <trkpt lat="44.22746" lon="6.0035">
        <ele>892.72</ele>
        <time>2013-06-07T16:33:34Z</time>
      </trkpt>
      <trkpt lat="44.2275" lon="6.00351">
        <ele>892.24</ele>
        <time>2013-06-07T16:33:51Z</time>
      </trkpt>
      <trkpt lat="44.22759" lon="6.00349">
        <ele>892.24</ele>
        <time>2013-06-07T16:34:12Z</time>
      </trkpt>
      <trkpt lat="44.22758" lon="6.00348">
        <ele>892.24</ele>
        <time>2013-06-07T16:34:26Z</time>
      </trkpt>
      <trkpt lat="44.22761" lon="6.0035">
        <ele>892.24</ele>
        <time>2013-06-07T16:34:34Z</time>
      </trkpt>
      <trkpt lat="44.22762" lon="6.00349">
        <ele>893.2</ele>
        <time>2013-06-07T16:34:35Z</time>
      </trkpt>
      <trkpt lat="44.22764" lon="6.00346">
        <ele>893.2</ele>
        <time>2013-06-07T16:34:40Z</time>
      </trkpt>
      <trkpt lat="44.22765" lon="6.00345">
        <ele>892.24</ele>
        <time>2013-06-07T16:34:44Z</time>
      </trkpt>
      <trkpt lat="44.22738" lon="6.00331">
        <ele>891.28</ele>
        <time>2013-06-07T16:34:55Z</time>
      </trkpt>
      <trkpt lat="44.22725" lon="6.00323">
        <ele>892.24</ele>
        <time>2013-06-07T16:35:02Z</time>
      </trkpt>
      <trkpt lat="44.22699" lon="6.00311">
        <ele>891.28</ele>
        <time>2013-06-07T16:35:18Z</time>
      </trkpt>
      <trkpt lat="44.22681" lon="6.00302">
        <ele>889.84</ele>
        <time>2013-06-07T16:35:32Z</time>
      </trkpt>
      <trkpt lat="44.22665" lon="6.0029">
        <ele>889.84</ele>
        <time>2013-06-07T16:35:46Z</time>
      </trkpt>
      <trkpt lat="44.22647" lon="6.00275">
        <ele>889.36</ele>
        <time>2013-06-07T16:36:00Z</time>
      </trkpt>
      <trkpt lat="44.22632" lon="6.00259">
        <ele>887.43</ele>
        <time>2013-06-07T16:36:14Z</time>
      </trkpt>
      <trkpt lat="44.22618" lon="6.00253">
        <ele>887.91</ele>
        <time>2013-06-07T16:36:26Z</time>
      </trkpt>
      <trkpt lat="44.22601" lon="6.00249">
        <ele>885.99</ele>
        <time>2013-06-07T16:36:41Z</time>
      </trkpt>
      <trkpt lat="44.22596" lon="6.00246">
        <ele>885.51</ele>
        <time>2013-06-07T16:36:46Z</time>
      </trkpt>
      <trkpt lat="44.22593" lon="6.00244">
        <ele>885.99</ele>
        <time>2013-06-07T16:36:49Z</time>
      </trkpt>
      <trkpt lat="44.22582" lon="6.00231">
        <ele>885.03</ele>
        <time>2013-06-07T16:37:05Z</time>
      </trkpt>
      <trkpt lat="44.22581" lon="6.00227">
        <ele>885.03</ele>
        <time>2013-06-07T16:37:27Z</time>
      </trkpt>
      <trkpt lat="44.22586" lon="6.00228">
        <ele>885.03</ele>
        <time>2013-06-07T16:37:47Z</time>
      </trkpt>
      <trkpt lat="44.22584" lon="6.0023">
        <ele>885.03</ele>
        <time>2013-06-07T16:38:10Z</time>
      </trkpt>
      <trkpt lat="44.2258" lon="6.0023">
        <ele>885.03</ele>
        <time>2013-06-07T16:38:22Z</time>
      </trkpt>
      <trkpt lat="44.22577" lon="6.0023">
        <ele>885.03</ele>
        <time>2013-06-07T16:38:36Z</time>
      </trkpt>
      <trkpt lat="44.22578" lon="6.00231">
        <ele>885.03</ele>
        <time>2013-06-07T16:39:19Z</time>
      </trkpt>
      <trkpt lat="44.22576" lon="6.0023">
        <ele>885.03</ele>
        <time>2013-06-07T16:39:57Z</time>
      </trkpt>
      <trkpt lat="44.22577" lon="6.00231">
        <ele>885.03</ele>
        <time>2013-06-07T16:40:21Z</time>
      </trkpt>
      <trkpt lat="44.22576" lon="6.00231">
        <ele>885.03</ele>
        <time>2013-06-07T16:40:52Z</time>
      </trkpt>
      <trkpt lat="44.22577" lon="6.0023">
        <ele>885.03</ele>
        <time>2013-06-07T16:41:28Z</time>
      </trkpt>
      <trkpt lat="44.22577" lon="6.00232">
        <ele>885.03</ele>
        <time>2013-06-07T16:41:54Z</time>
      </trkpt>
      <trkpt lat="44.22579" lon="6.0023">
        <ele>885.03</ele>
        <time>2013-06-07T16:42:27Z</time>
      </trkpt>
      <trkpt lat="44.22579" lon="6.00232">
        <ele>885.03</ele>
        <time>2013-06-07T16:42:48Z</time>
      </trkpt>
      <trkpt lat="44.22573" lon="6.00224">
        <ele>885.51</ele>
        <time>2013-06-07T16:43:04Z</time>
      </trkpt>
      <trkpt lat="44.2257" lon="6.0022">
        <ele>884.55</ele>
        <time>2013-06-07T16:43:09Z</time>
      </trkpt>
      <trkpt lat="44.2256" lon="6.00206">
        <ele>884.55</ele>
        <time>2013-06-07T16:43:26Z</time>
      </trkpt>
      <trkpt lat="44.22561" lon="6.00203">
        <ele>884.55</ele>
        <time>2013-06-07T16:43:42Z</time>
      </trkpt>
      <trkpt lat="44.22563" lon="6.00206">
        <ele>884.07</ele>
        <time>2013-06-07T16:44:06Z</time>
      </trkpt>
      <trkpt lat="44.22565" lon="6.00205">
        <ele>884.55</ele>
        <time>2013-06-07T16:44:20Z</time>
      </trkpt>
      <trkpt lat="44.22561" lon="6.00204">
        <ele>884.55</ele>
        <time>2013-06-07T16:44:44Z</time>
      </trkpt>
      <trkpt lat="44.2256" lon="6.00205">
        <ele>884.55</ele>
        <time>2013-06-07T16:45:11Z</time>
      </trkpt>
      <trkpt lat="44.22558" lon="6.00204">
        <ele>884.55</ele>
        <time>2013-06-07T16:45:34Z</time>
      </trkpt>
      <trkpt lat="44.22558" lon="6.00199">
        <ele>883.59</ele>
        <time>2013-06-07T16:45:46Z</time>
      </trkpt>
      <trkpt lat="44.2255" lon="6.00189">
        <ele>883.59</ele>
        <time>2013-06-07T16:45:56Z</time>
      </trkpt>
      <trkpt lat="44.22544" lon="6.00172">
        <ele>882.15</ele>
        <time>2013-06-07T16:46:09Z</time>
      </trkpt>
      <trkpt lat="44.22545" lon="6.00158">
        <ele>881.19</ele>
        <time>2013-06-07T16:46:18Z</time>
      </trkpt>
      <trkpt lat="44.22551" lon="6.00152">
        <ele>881.19</ele>
        <time>2013-06-07T16:46:50Z</time>
      </trkpt>
      <trkpt lat="44.22549" lon="6.0016">
        <ele>880.71</ele>
        <time>2013-06-07T16:47:03Z</time>
      </trkpt>
      <trkpt lat="44.22547" lon="6.00159">
        <ele>880.71</ele>
        <time>2013-06-07T16:47:24Z</time>
      </trkpt>
      <trkpt lat="44.22546" lon="6.00156">
        <ele>880.71</ele>
        <time>2013-06-07T16:47:45Z</time>
      </trkpt>
      <trkpt lat="44.22547" lon="6.00156">
        <ele>881.19</ele>
        <time>2013-06-07T16:47:57Z</time>
      </trkpt>
    </trkseg>
  </trk>
</gpx>